Observation data for Junction on 01/19/2019      Previous  Date  Next       Current Mesonet Observations  Soil Data  Daily Summary Page  Observations in Plain Language
KJU1 190600Z 30014G20KT 17/M02 A2992 RMK A01 T01691022  RH  027%=      5-min Rain = 0
KJU1 190601Z 30012KT 17/M02 A2992 RMK A01 T01701024  RH  026%=      5-min Rain = 0
KJU1 190602Z 31011G18KT 17/M02 A2992 RMK A01 T01711022  RH  027%=      5-min Rain = 0
KJU1 190603Z 29009KT 17/M02 A2992 RMK A01 T01711024  RH  026%=      5-min Rain = 0
KJU1 190604Z 30012G17KT 17/M03 A2992 RMK A01 T01711025  RH  026%=      5-min Rain = 0
KJU1 190605Z 31014G20KT 17/M03 A2992 RMK A01 T01711026  RH  026%=      5-min Rain = 0
KJU1 190606Z 31015G21KT 17/M03 A2992 RMK A01 T01711029  RH  025%=      5-min Rain = 0
KJU1 190607Z 29013G20KT 17/M03 A2992 RMK A01 T01711029  RH  025%=      5-min Rain = 0
KJU1 190608Z 29014G19KT 17/M03 A2992 RMK A01 T01721028  RH  025%=      5-min Rain = 0
KJU1 190609Z 30013KT 17/M03 A2992 RMK A01 T01721029  RH  025%=      5-min Rain = 0
KJU1 190610Z 30011KT 17/M03 A2992 RMK A01 T01711028  RH  026%=      5-min Rain = 0
KJU1 190611Z 31009KT 17/M03 A2992 RMK A01 T01711028  RH  026%=      5-min Rain = 0
KJU1 190612Z 31009KT 17/M03 A2993 RMK A01 T01701028  RH  026%=      5-min Rain = 0
KJU1 190613Z 30014KT 17/M03 A2992 RMK A01 T01701028  RH  026%=      5-min Rain = 0
KJU1 190614Z 30013G18KT 17/M03 A2993 RMK A01 T01701030  RH  025%=      5-min Rain = 0
KJU1 190615Z 30012G18KT 17/M03 A2993 RMK A01 T01701031  RH  025%=      5-min Rain = 0
KJU1 190616Z 30009G15KT 17/M03 A2993 RMK A01 T01701030  RH  025%=      5-min Rain = 0
KJU1 190617Z 31008KT 17/M03 A2993 RMK A01 T01681028  RH  026%=      5-min Rain = 0
KJU1 190618Z 32009G14KT 17/M03 A2993 RMK A01 T01681029  RH  026%=      5-min Rain = 0
KJU1 190619Z 30013G18KT 17/M03 A2993 RMK A01 T01671031  RH  026%=      5-min Rain = 0
KJU1 190620Z 29007G12KT 17/M03 A2993 RMK A01 T01671027  RH  026%=      5-min Rain = 0
KJU1 190621Z 29010G17KT 17/M03 A2993 RMK A01 T01661030  RH  026%=      5-min Rain = 0
KJU1 190622Z 31010G15KT 17/M03 A2993 RMK A01 T01661030  RH  026%=      5-min Rain = 0
KJU1 190623Z 29008G14KT 17/M03 A2993 RMK A01 T01651031  RH  026%=      5-min Rain = 0
KJU1 190624Z 30011G18KT 17/M03 A2993 RMK A01 T01651031  RH  026%=      5-min Rain = 0
KJU1 190625Z 30014KT 17/M03 A2993 RMK A01 T01651034  RH  025%=      5-min Rain = 0
KJU1 190626Z 30012G17KT 17/M03 A2993 RMK A01 T01661034  RH  025%=      5-min Rain = 0
KJU1 190627Z 30010KT 17/M03 A2993 RMK A01 T01671034  RH  025%=      5-min Rain = 0
KJU1 190628Z 30008G13KT 17/M03 A2993 RMK A01 T01661034  RH  025%=      5-min Rain = 0
KJU1 190629Z 30009G15KT 17/M03 A2993 RMK A01 T01661032  RH  026%=      5-min Rain = 0
KJU1 190630Z 30012G17KT 17/M03 A2993 RMK A01 T01651033  RH  025%=      5-min Rain = 0
KJU1 190631Z 30012G18KT 17/M03 A2993 RMK A01 T01651033  RH  026%=      5-min Rain = 0
KJU1 190632Z 30013G19KT 17/M04 A2993 RMK A01 T01651035  RH  025%=      5-min Rain = 0
KJU1 190633Z 30013G19KT 17/M03 A2993 RMK A01 T01651034  RH  025%=      5-min Rain = 0
KJU1 190634Z 31015G20KT 17/M04 A2993 RMK A01 T01661035  RH  025%=      5-min Rain = 0
KJU1 190635Z 30012KT 17/M04 A2993 RMK A01 T01671035  RH  025%=      5-min Rain = 0
KJU1 190636Z 30010KT 17/M03 A2993 RMK A01 T01661033  RH  025%=      5-min Rain = 0
KJU1 190637Z 30008KT 17/M03 A2993 RMK A01 T01651032  RH  026%=      5-min Rain = 0
KJU1 190638Z 30010KT 17/M03 A2993 RMK A01 T01651034  RH  025%=      5-min Rain = 0
KJU1 190639Z 30009G17KT 17/M03 A2993 RMK A01 T01651032  RH  026%=      5-min Rain = 0
KJU1 190640Z 30010G16KT 16/M03 A2993 RMK A01 T01641032  RH  026%=      5-min Rain = 0
KJU1 190641Z 30010KT 16/M03 A2993 RMK A01 T01641032  RH  026%=      5-min Rain = 0
KJU1 190642Z 30010G15KT 16/M03 A2993 RMK A01 T01641032  RH  026%=      5-min Rain = 0
KJU1 190643Z 30007KT 16/M03 A2993 RMK A01 T01641031  RH  026%=      5-min Rain = 0
KJU1 190644Z 30008KT 16/M03 A2993 RMK A01 T01631031  RH  026%=      5-min Rain = 0
KJU1 190645Z 29007G12KT 16/M03 A2993 RMK A01 T01631029  RH  027%=      5-min Rain = 0
KJU1 190646Z 28011G17KT 16/M03 A2993 RMK A01 T01631031  RH  026%=      5-min Rain = 0
KJU1 190647Z 29010G16KT 16/M03 A2993 RMK A01 T01631032  RH  026%=      5-min Rain = 0
KJU1 190648Z 30007KT 16/M03 A2994 RMK A01 T01631029  RH  027%=      5-min Rain = 0
KJU1 190649Z 31009KT 16/M03 A2994 RMK A01 T01621029  RH  027%=      5-min Rain = 0
KJU1 190650Z 30010G15KT 16/M03 A2994 RMK A01 T01621029  RH  027%=      5-min Rain = 0
KJU1 190651Z 30009KT 16/M03 A2994 RMK A01 T01621030  RH  027%=      5-min Rain = 0
KJU1 190652Z 31012KT 16/M03 A2994 RMK A01 T01621031  RH  026%=      5-min Rain = 0
KJU1 190653Z 30012G18KT 16/M03 A2994 RMK A01 T01631030  RH  026%=      5-min Rain = 0
KJU1 190654Z 31013KT 16/M03 A2994 RMK A01 T01631029  RH  027%=      5-min Rain = 0
KJU1 190655Z 32015G21KT 16/M03 A2994 RMK A01 T01631027  RH  027%=      5-min Rain = 0
KJU1 190656Z 32015G22KT 16/M02 A2994 RMK A01 T01621023  RH  028%=      5-min Rain = 0
KJU1 190657Z 31012G20KT 16/M02 A2994 RMK A01 T01621021  RH  029%=      5-min Rain = 0
KJU1 190658Z 32020G25KT 16/M02 A2994 RMK A01 T01611019  RH  029%=      5-min Rain = 0
KJU1 190659Z 31011G16KT 16/M02 A2994 RMK A01 T01611016  RH  030%=      5-min Rain = 0
KJU1 190700Z 32015G23KT 16/M01 A2994 RMK A01 T01591013  RH  031%=      5-min Rain = 0
KJU1 190701Z 32013G19KT 16/M01 A2994 RMK A01 T01591011  RH  031%=      5-min Rain = 0
KJU1 190702Z 33011KT 16/M01 A2994 RMK A01 T01581010  RH  032%=      5-min Rain = 0
KJU1 190703Z 31010G15KT 16/M01 A2994 RMK A01 T01571009  RH  032%=      5-min Rain = 0
KJU1 190704Z 32010KT 16/M01 A2994 RMK A01 T01561007  RH  033%=      5-min Rain = 0
KJU1 190705Z 32015G20KT 16/M01 A2994 RMK A01 T01561006  RH  033%=      5-min Rain = 0
KJU1 190706Z 32013KT 16/M00 A2994 RMK A01 T01561004  RH  034%=      5-min Rain = 0
KJU1 190707Z 33011G16KT 16/M00 A2994 RMK A01 T01551003  RH  034%=      5-min Rain = 0
KJU1 190708Z 32010G16KT 15/M00 A2995 RMK A01 T01541001  RH  035%=      5-min Rain = 0
KJU1 190709Z 32011KT 15/00 A2995 RMK A01 T01530001  RH  035%=      5-min Rain = 0
KJU1 190710Z 31009G17KT 15/00 A2995 RMK A01 T01520003  RH  036%=      5-min Rain = 0
KJU1 190711Z 31015G21KT 15/00 A2995 RMK A01 T01510004  RH  037%=      5-min Rain = 0
KJU1 190712Z 31011G16KT 15/00 A2995 RMK A01 T01510004  RH  037%=      5-min Rain = 0
KJU1 190713Z 31012G17KT 15/01 A2995 RMK A01 T01510005  RH  037%=      5-min Rain = 0
KJU1 190714Z 31010G15KT 15/01 A2996 RMK A01 T01500006  RH  037%=      5-min Rain = 0
KJU1 190715Z 32012KT 15/01 A2996 RMK A01 T01500007  RH  038%=      5-min Rain = 0
KJU1 190716Z 32011G16KT 15/01 A2996 RMK A01 T01490008  RH  038%=      5-min Rain = 0
KJU1 190717Z 31012KT 15/01 A2996 RMK A01 T01480009  RH  039%=      5-min Rain = 0
KJU1 190718Z 31008KT 15/01 A2996 RMK A01 T01470010  RH  039%=      5-min Rain = 0
KJU1 190719Z 31009KT 15/01 A2996 RMK A01 T01470011  RH  040%=      5-min Rain = 0
KJU1 190720Z 31009G16KT 15/01 A2996 RMK A01 T01460011  RH  040%=      5-min Rain = 0
KJU1 190721Z 31015KT 15/01 A2997 RMK A01 T01450012  RH  040%=      5-min Rain = 0
KJU1 190722Z 32014G19KT 15/01 A2997 RMK A01 T01450012  RH  040%=      5-min Rain = 0
KJU1 190723Z 30014G23KT 15/01 A2997 RMK A01 T01450012  RH  041%=      5-min Rain = 0
KJU1 190724Z 31014G20KT 14/01 A2997 RMK A01 T01440013  RH  041%=      5-min Rain = 0
KJU1 190725Z 30013KT 14/01 A2997 RMK A01 T01430014  RH  042%=      5-min Rain = 0
KJU1 190726Z 31015KT 14/02 A2997 RMK A01 T01420015  RH  042%=      5-min Rain = 0
KJU1 190727Z 31014G19KT 14/02 A2997 RMK A01 T01420016  RH  042%=      5-min Rain = 0
KJU1 190728Z 32015G22KT 14/02 A2997 RMK A01 T01410016  RH  043%=      5-min Rain = 0
KJU1 190729Z 32015KT 14/02 A2997 RMK A01 T01400016  RH  043%=      5-min Rain = 0
KJU1 190730Z 32013G19KT 14/02 A2997 RMK A01 T01400016  RH  043%=      5-min Rain = 0
KJU1 190731Z 32010G15KT 14/02 A2997 RMK A01 T01390017  RH  043%=      5-min Rain = 0
KJU1 190732Z 30011KT 14/02 A2997 RMK A01 T01380017  RH  044%=      5-min Rain = 0
KJU1 190733Z 29012KT 14/02 A2997 RMK A01 T01370017  RH  044%=      5-min Rain = 0
KJU1 190734Z 29013G24KT 14/02 A2997 RMK A01 T01360017  RH  044%=      5-min Rain = 0
KJU1 190735Z 30013G22KT 14/02 A2997 RMK A01 T01350017  RH  045%=      5-min Rain = 0
KJU1 190736Z 29012G18KT 14/02 A2997 RMK A01 T01350018  RH  045%=      5-min Rain = 0
KJU1 190737Z 30016G23KT 13/02 A2997 RMK A01 T01340018  RH  045%=      5-min Rain = 0
KJU1 190738Z 29016KT 13/02 A2997 RMK A01 T01340018  RH  045%=      5-min Rain = 0
KJU1 190739Z 29011KT 13/02 A2998 RMK A01 T01330018  RH  046%=      5-min Rain = 0
KJU1 190740Z 29012G21KT 13/02 A2997 RMK A01 T01320019  RH  046%=      5-min Rain = 0
KJU1 190741Z 30015G20KT 13/02 A2997 RMK A01 T01310019  RH  047%=      5-min Rain = 0
KJU1 190742Z 31010G15KT 13/02 A2997 RMK A01 T01300019  RH  047%=      5-min Rain = 0
KJU1 190743Z 31012KT 13/02 A2997 RMK A01 T01290019  RH  047%=      5-min Rain = 0
KJU1 190744Z 31011G17KT 13/02 A2997 RMK A01 T01290019  RH  047%=      5-min Rain = 0
KJU1 190745Z 31013G22KT 13/02 A2997 RMK A01 T01280020  RH  048%=      5-min Rain = 0
KJU1 190746Z 33014KT 13/02 A2997 RMK A01 T01270019  RH  048%=      5-min Rain = 0
KJU1 190747Z 31011G18KT 13/02 A2998 RMK A01 T01270019  RH  048%=      5-min Rain = 0
KJU1 190748Z 30017G26KT 13/02 A2998 RMK A01 T01270020  RH  048%=      5-min Rain = 0
KJU1 190749Z 31018KT 13/02 A2998 RMK A01 T01270020  RH  048%=      5-min Rain = 0
KJU1 190750Z 32013G19KT 13/02 A2998 RMK A01 T01270020  RH  048%=      5-min Rain = 0
KJU1 190751Z 32011KT 13/02 A2998 RMK A01 T01270020  RH  048%=      5-min Rain = 0
KJU1 190752Z 31010KT 13/02 A2998 RMK A01 T01260020  RH  048%=      5-min Rain = 0
KJU1 190753Z 31015KT 13/02 A2998 RMK A01 T01260020  RH  049%=      5-min Rain = 0
KJU1 190754Z 31016KT 13/02 A2998 RMK A01 T01260020  RH  049%=      5-min Rain = 0
KJU1 190755Z 31014G22KT 13/02 A2999 RMK A01 T01250020  RH  049%=      5-min Rain = 0
KJU1 190756Z 31013G22KT 13/02 A2998 RMK A01 T01250021  RH  049%=      5-min Rain = 0
KJU1 190757Z 31010G15KT 12/02 A2999 RMK A01 T01240021  RH  049%=      5-min Rain = 0
KJU1 190758Z 30013G20KT 12/02 A2999 RMK A01 T01230022  RH  050%=      5-min Rain = 0
KJU1 190759Z 32009G15KT 12/02 A2999 RMK A01 T01220022  RH  050%=      5-min Rain = 0
KJU1 190800Z 31010KT 12/02 A2999 RMK A01 T01210022  RH  051%=      5-min Rain = 0
KJU1 190801Z 31016G24KT 12/02 A2999 RMK A01 T01210023  RH  051%=      5-min Rain = 0
KJU1 190802Z 32010G16KT 12/02 A2999 RMK A01 T01200023  RH  051%=      5-min Rain = 0
KJU1 190803Z 32012G21KT 12/02 A2999 RMK A01 T01200024  RH  052%=      5-min Rain = 0
KJU1 190804Z 31014G19KT 12/03 A2999 RMK A01 T01200025  RH  052%=      5-min Rain = 0
KJU1 190805Z 32013G20KT 12/03 A2999 RMK A01 T01190025  RH  052%=      5-min Rain = 0
KJU1 190806Z 31011KT 12/03 A2999 RMK A01 T01190025  RH  052%=      5-min Rain = 0
KJU1 190807Z 31014G23KT 12/03 A2999 RMK A01 T01190025  RH  052%=      5-min Rain = 0
KJU1 190808Z 32017KT 12/03 A2999 RMK A01 T01190025  RH  053%=      5-min Rain = 0
KJU1 190809Z 31016G23KT 12/03 A2999 RMK A01 T01180025  RH  053%=      5-min Rain = 0
KJU1 190810Z 32015G24KT 12/03 A2999 RMK A01 T01180025  RH  053%=      5-min Rain = 0
KJU1 190811Z 30019G27KT 12/03 A30 RMK A01 T01170026  RH  054%=      5-min Rain = 0
KJU1 190812Z 31016G24KT 12/03 A30 RMK A01 T01160027  RH  054%=      5-min Rain = 0
KJU1 190813Z 32013G21KT 12/03 A30 RMK A01 T01150027  RH  055%=      5-min Rain = 0
KJU1 190814Z 31013G18KT 12/03 A30 RMK A01 T01150028  RH  055%=      5-min Rain = 0
KJU1 190815Z 31012G17KT 11/03 A30 RMK A01 T01140028  RH  055%=      5-min Rain = 0
KJU1 190816Z 32010KT 11/03 A30 RMK A01 T01140029  RH  056%=      5-min Rain = 0
KJU1 190817Z 31012G17KT 11/03 A30 RMK A01 T01130029  RH  056%=      5-min Rain = 0
KJU1 190818Z 31016G22KT 11/03 A30 RMK A01 T01120029  RH  056%=      5-min Rain = 0
KJU1 190819Z 30013KT 11/03 A30 RMK A01 T01120029  RH  056%=      5-min Rain = 0
KJU1 190820Z 30010G16KT 11/03 A30 RMK A01 T01120029  RH  056%=      5-min Rain = 0
KJU1 190821Z 31012KT 11/03 A30 RMK A01 T01110029  RH  057%=      5-min Rain = 0
KJU1 190822Z 31015G21KT 11/03 A30 RMK A01 T01100029  RH  057%=      5-min Rain = 0
KJU1 190823Z 32013G20KT 11/03 A30 RMK A01 T01100028  RH  057%=      5-min Rain = 0
KJU1 190824Z 31012KT 11/03 A30 RMK A01 T01100028  RH  057%=      5-min Rain = 0
KJU1 190825Z 32012G17KT 11/03 A30 RMK A01 T01100028  RH  057%=      5-min Rain = 0
KJU1 190826Z 31010KT 11/03 A30 RMK A01 T01090028  RH  057%=      5-min Rain = 0
KJU1 190827Z 32008KT 11/03 A30 RMK A01 T01090028  RH  058%=      5-min Rain = 0
KJU1 190828Z 31007G15KT 11/03 A30 RMK A01 T01080028  RH  058%=      5-min Rain = 0
KJU1 190829Z 31014G19KT 11/03 A30 RMK A01 T01070028  RH  058%=      5-min Rain = 0
KJU1 190830Z 31013G18KT 11/03 A30 RMK A01 T01080027  RH  058%=      5-min Rain = 0
KJU1 190831Z 32011KT 11/03 A30 RMK A01 T01070026  RH  057%=      5-min Rain = 0
KJU1 190832Z 31015KT 11/03 A30 RMK A01 T01070026  RH  057%=      5-min Rain = 0
KJU1 190833Z 31013KT 11/03 A30 RMK A01 T01070026  RH  057%=      5-min Rain = 0
KJU1 190834Z 31012KT 11/03 A30 RMK A01 T01070025  RH  057%=      5-min Rain = 0
KJU1 190835Z 30012G20KT 11/03 A30 RMK A01 T01060025  RH  057%=      5-min Rain = 0
KJU1 190836Z 32013G19KT 11/02 A30 RMK A01 T01060024  RH  057%=      5-min Rain = 0
KJU1 190837Z 32009G15KT 11/02 A30 RMK A01 T01050024  RH  057%=      5-min Rain = 0
KJU1 190838Z 32012G17KT 11/02 A3001 RMK A01 T01050023  RH  057%=      5-min Rain = 0
KJU1 190839Z 31010G15KT 11/02 A3001 RMK A01 T01050023  RH  057%=      5-min Rain = 0
KJU1 190840Z 30012KT 10/02 A3001 RMK A01 T01040022  RH  057%=      5-min Rain = 0
KJU1 190841Z 31014G20KT 10/02 A3001 RMK A01 T01040022  RH  057%=      5-min Rain = 0
KJU1 190842Z 32017G23KT 10/02 A3001 RMK A01 T01040020  RH  056%=      5-min Rain = 0
KJU1 190843Z 30015KT 10/02 A3001 RMK A01 T01040019  RH  055%=      5-min Rain = 0
KJU1 190844Z 31011KT 10/02 A3001 RMK A01 T01040019  RH  055%=      5-min Rain = 0
KJU1 190845Z 31009KT 10/02 A3001 RMK A01 T01040019  RH  056%=      5-min Rain = 0
KJU1 190846Z 32010G16KT 10/02 A3001 RMK A01 T01030019  RH  056%=      5-min Rain = 0
KJU1 190847Z 31015G21KT 10/02 A3001 RMK A01 T01020018  RH  056%=      5-min Rain = 0
KJU1 190848Z 31014G24KT 10/02 A3001 RMK A01 T01020017  RH  055%=      5-min Rain = 0
KJU1 190849Z 34013G24KT 10/02 A3001 RMK A01 T01020016  RH  055%=      5-min Rain = 0
KJU1 190850Z 32015KT 10/02 A3002 RMK A01 T01020016  RH  055%=      5-min Rain = 0
KJU1 190851Z 31012G18KT 10/02 A3002 RMK A01 T01020015  RH  055%=      5-min Rain = 0
KJU1 190852Z 32010KT 10/02 A3002 RMK A01 T01020015  RH  055%=      5-min Rain = 0
KJU1 190853Z 31009KT 10/02 A3002 RMK A01 T01010015  RH  055%=      5-min Rain = 0
KJU1 190854Z 32010G16KT 10/02 A3002 RMK A01 T01010015  RH  055%=      5-min Rain = 0
KJU1 190855Z 31009KT 10/01 A3002 RMK A01 T01000014  RH  055%=      5-min Rain = 0
KJU1 190856Z 32008KT 10/01 A3002 RMK A01 T01000014  RH  055%=      5-min Rain = 0
KJU1 190857Z 31010KT 10/01 A3002 RMK A01 T00990014  RH  055%=      5-min Rain = 0
KJU1 190858Z 32007G12KT 10/01 A3002 RMK A01 T00990014  RH  055%=      5-min Rain = 0
KJU1 190859Z 31013G18KT 10/01 A3002 RMK A01 T00990014  RH  055%=      5-min Rain = 0
KJU1 190900Z 31015KT 10/01 A3002 RMK A01 T00990012  RH  055%=      5-min Rain = 0
KJU1 190901Z 33010G18KT 10/01 A3002 RMK A01 T00990012  RH  055%=      5-min Rain = 0
KJU1 190902Z 32010G15KT 10/01 A3002 RMK A01 T00980011  RH  055%=      5-min Rain = 0
KJU1 190903Z 31011KT 10/01 A3002 RMK A01 T00980011  RH  055%=      5-min Rain = 0
KJU1 190904Z 31011KT 10/01 A3002 RMK A01 T00970011  RH  055%=      5-min Rain = 0
KJU1 190905Z 31008KT 10/01 A3002 RMK A01 T00970010  RH  055%=      5-min Rain = 0
KJU1 190906Z 31008KT 10/01 A3002 RMK A01 T00960010  RH  055%=      5-min Rain = 0
KJU1 190907Z 31011G18KT 10/01 A3002 RMK A01 T00960010  RH  055%=      5-min Rain = 0
KJU1 190908Z 32008KT 10/01 A3002 RMK A01 T00950009  RH  055%=      5-min Rain = 0
KJU1 190909Z 30009G20KT 10/01 A3002 RMK A01 T00950009  RH  055%=      5-min Rain = 0
KJU1 190910Z 32013G19KT 10/01 A3002 RMK A01 T00950009  RH  055%=      5-min Rain = 0
KJU1 190911Z 32011G16KT 10/01 A3003 RMK A01 T00950008  RH  055%=      5-min Rain = 0
KJU1 190912Z 31011KT 10/01 A3002 RMK A01 T00950008  RH  055%=      5-min Rain = 0
KJU1 190913Z 32008KT 10/01 A3003 RMK A01 T00950008  RH  055%=      5-min Rain = 0
KJU1 190914Z 31007KT 10/01 A3003 RMK A01 T00950009  RH  055%=      5-min Rain = 0
KJU1 190915Z 31010G17KT 09/01 A3003 RMK A01 T00930009  RH  056%=      5-min Rain = 0
KJU1 190916Z 32010KT 09/01 A3003 RMK A01 T00920008  RH  056%=      5-min Rain = 0
KJU1 190917Z 31008KT 09/01 A3003 RMK A01 T00920008  RH  056%=      5-min Rain = 0
KJU1 190918Z 31011KT 09/01 A3003 RMK A01 T00920008  RH  056%=      5-min Rain = 0
KJU1 190919Z 32007G13KT 09/01 A3003 RMK A01 T00920008  RH  056%=      5-min Rain = 0
KJU1 190920Z 31012G21KT 09/01 A3003 RMK A01 T00920008  RH  056%=      5-min Rain = 0
KJU1 190921Z 31015G22KT 09/01 A3004 RMK A01 T00910006  RH  056%=      5-min Rain = 0
KJU1 190922Z 32012G17KT 09/01 A3004 RMK A01 T00900005  RH  055%=      5-min Rain = 0
KJU1 190923Z 32008KT 09/01 A3004 RMK A01 T00900005  RH  055%=      5-min Rain = 0
KJU1 190924Z 31012KT 09/01 A3004 RMK A01 T00900005  RH  055%=      5-min Rain = 0
KJU1 190925Z 31015G20KT 09/00 A3004 RMK A01 T00890003  RH  055%=      5-min Rain = 0
KJU1 190926Z 31014G19KT 09/00 A3004 RMK A01 T00880001  RH  054%=      5-min Rain = 0
KJU1 190927Z 31016G24KT 09/M00 A3004 RMK A01 T00871001  RH  054%=      5-min Rain = 0
KJU1 190928Z 32016G22KT 09/M01 A3005 RMK A01 T00861005  RH  053%=      5-min Rain = 0
KJU1 190929Z 33011G17KT 09/M01 A3005 RMK A01 T00851006  RH  053%=      5-min Rain = 0
KJU1 190930Z 33014G19KT 08/M01 A3005 RMK A01 T00841007  RH  053%=      5-min Rain = 0
KJU1 190931Z 32012G18KT 08/M01 A3005 RMK A01 T00831009  RH  053%=      5-min Rain = 0
KJU1 190932Z 32012G23KT 08/M01 A3005 RMK A01 T00811010  RH  052%=      5-min Rain = 0
KJU1 190933Z 32015G20KT 08/M01 A3005 RMK A01 T00801011  RH  052%=      5-min Rain = 0
KJU1 190934Z 32012KT 08/M01 A3005 RMK A01 T00791013  RH  052%=      5-min Rain = 0
KJU1 190935Z 33010KT 08/M01 A3005 RMK A01 T00791013  RH  052%=      5-min Rain = 0
KJU1 190936Z 32015G24KT 08/M01 A3006 RMK A01 T00781013  RH  052%=      5-min Rain = 0
KJU1 190937Z 32017G22KT 08/M01 A3005 RMK A01 T00781014  RH  052%=      5-min Rain = 0
KJU1 190938Z 32019G26KT 08/M02 A3005 RMK A01 T00781015  RH  052%=      5-min Rain = 0
KJU1 190939Z 32014KT 08/M02 A3006 RMK A01 T00781015  RH  052%=      5-min Rain = 0
KJU1 190940Z 31013G20KT 08/M02 A3006 RMK A01 T00771015  RH  052%=      5-min Rain = 0
KJU1 190941Z 32017G23KT 08/M02 A3006 RMK A01 T00771015  RH  052%=      5-min Rain = 0
KJU1 190942Z 32018G26KT 08/M02 A3006 RMK A01 T00761016  RH  052%=      5-min Rain = 0
KJU1 190943Z 31014G20KT 08/M02 A3006 RMK A01 T00761016  RH  052%=      5-min Rain = 0
KJU1 190944Z 32011G17KT 08/M02 A3006 RMK A01 T00761016  RH  052%=      5-min Rain = 0
KJU1 190945Z 31013G20KT 08/M02 A3006 RMK A01 T00751016  RH  052%=      5-min Rain = 0
KJU1 190946Z 32012KT 08/M02 A3006 RMK A01 T00751016  RH  053%=      5-min Rain = 0
KJU1 190947Z 32011KT 07/M02 A3006 RMK A01 T00741016  RH  053%=      5-min Rain = 0
KJU1 190948Z 32011G16KT 07/M02 A3007 RMK A01 T00741016  RH  053%=      5-min Rain = 0
KJU1 190949Z 31019G28KT 07/M02 A3007 RMK A01 T00741016  RH  053%=      5-min Rain = 0
KJU1 190950Z 30015G28KT 07/M02 A3007 RMK A01 T00741016  RH  053%=      5-min Rain = 0
KJU1 190951Z 31013G20KT 07/M02 A3007 RMK A01 T00741015  RH  053%=      5-min Rain = 0
KJU1 190952Z 31016G22KT 07/M02 A3007 RMK A01 T00741016  RH  053%=      5-min Rain = 0
KJU1 190953Z 31012G19KT 07/M02 A3007 RMK A01 T00741016  RH  053%=      5-min Rain = 0
KJU1 190954Z 31011KT 07/M02 A3007 RMK A01 T00741015  RH  053%=      5-min Rain = 0
KJU1 190955Z 31010KT 07/M02 A3007 RMK A01 T00731015  RH  053%=      5-min Rain = 0
KJU1 190956Z 31011KT 07/M02 A3007 RMK A01 T00741015  RH  053%=      5-min Rain = 0
KJU1 190957Z 30009G14KT 07/M02 A3007 RMK A01 T00731015  RH  053%=      5-min Rain = 0
KJU1 190958Z 31011G21KT 07/M02 A3007 RMK A01 T00731015  RH  054%=      5-min Rain = 0
KJU1 190959Z 32014G19KT 07/M02 A3007 RMK A01 T00721015  RH  054%=      5-min Rain = 0
KJU1 191000Z 32012G18KT 07/M02 A3008 RMK A01 T00721015  RH  054%=      5-min Rain = 0
KJU1 191001Z 32012G17KT 07/M02 A3007 RMK A01 T00731015  RH  054%=      5-min Rain = 0
KJU1 191002Z 32013G18KT 07/M02 A3007 RMK A01 T00731015  RH  054%=      5-min Rain = 0
KJU1 191003Z 32012KT 07/M02 A3007 RMK A01 T00721015  RH  054%=      5-min Rain = 0
KJU1 191004Z 30009KT 07/M02 A3007 RMK A01 T00721015  RH  054%=      5-min Rain = 0
KJU1 191005Z 31008G13KT 07/M01 A3008 RMK A01 T00721014  RH  054%=      5-min Rain = 0
KJU1 191006Z 31008KT 07/M01 A3008 RMK A01 T00721014  RH  054%=      5-min Rain = 0
KJU1 191007Z 31008KT 07/M01 A3008 RMK A01 T00711014  RH  055%=      5-min Rain = 0
KJU1 191008Z 32006KT 07/M01 A3008 RMK A01 T00711014  RH  055%=      5-min Rain = 0
KJU1 191009Z 32008KT 07/M01 A3008 RMK A01 T00711013  RH  055%=      5-min Rain = 0
KJU1 191010Z 31009KT 07/M01 A3008 RMK A01 T00711013  RH  055%=      5-min Rain = 0
KJU1 191011Z 31006KT 07/M01 A3008 RMK A01 T00711013  RH  055%=      5-min Rain = 0
KJU1 191012Z 33008G17KT 07/M01 A3008 RMK A01 T00701013  RH  055%=      5-min Rain = 0
KJU1 191013Z 31010G15KT 07/M01 A3008 RMK A01 T00701013  RH  055%=      5-min Rain = 0
KJU1 191014Z 31009G14KT 07/M01 A3008 RMK A01 T00701013  RH  055%=      5-min Rain = 0
KJU1 191015Z 30011KT 07/M01 A3008 RMK A01 T00701013  RH  055%=      5-min Rain = 0
KJU1 191016Z 31008KT 07/M01 A3008 RMK A01 T00701013  RH  055%=      5-min Rain = 0
KJU1 191017Z 31008KT 07/M01 A3008 RMK A01 T00701013  RH  055%=      5-min Rain = 0
KJU1 191018Z 32007KT 07/M01 A3008 RMK A01 T00701013  RH  056%=      5-min Rain = 0
KJU1 191019Z 32007KT 07/M01 A3008 RMK A01 T00701013  RH  056%=      5-min Rain = 0
KJU1 191020Z 31008KT 07/M01 A3008 RMK A01 T00691012  RH  056%=      5-min Rain = 0
KJU1 191021Z 32008KT 07/M01 A3008 RMK A01 T00691012  RH  056%=      5-min Rain = 0
KJU1 191022Z 31007G13KT 07/M01 A3008 RMK A01 T00691012  RH  056%=      5-min Rain = 0
KJU1 191023Z 31013G19KT 07/M01 A3008 RMK A01 T00691012  RH  056%=      5-min Rain = 0
KJU1 191024Z 31011G17KT 07/M01 A3008 RMK A01 T00701012  RH  056%=      5-min Rain = 0
KJU1 191025Z 31010G18KT 07/M01 A3008 RMK A01 T00701012  RH  056%=      5-min Rain = 0
KJU1 191026Z 31007KT 07/M01 A3008 RMK A01 T00711012  RH  056%=      5-min Rain = 0
KJU1 191027Z 31007KT 07/M01 A3008 RMK A01 T00711012  RH  056%=      5-min Rain = 0
KJU1 191028Z 31009G17KT 07/M01 A3008 RMK A01 T00701011  RH  056%=      5-min Rain = 0
KJU1 191029Z 32010KT 07/M01 A3008 RMK A01 T00701011  RH  056%=      5-min Rain = 0
KJU1 191030Z 31010KT 07/M01 A3009 RMK A01 T00701012  RH  056%=      5-min Rain = 0
KJU1 191031Z 30009KT 07/M01 A3009 RMK A01 T00711012  RH  056%=      5-min Rain = 0
KJU1 191032Z 31009KT 07/M01 A3008 RMK A01 T00711012  RH  056%=      5-min Rain = 0
KJU1 191033Z 30006KT 07/M01 A3008 RMK A01 T00711012  RH  056%=      5-min Rain = 0
KJU1 191034Z 29008KT 07/M01 A3008 RMK A01 T00701011  RH  056%=      5-min Rain = 0
KJU1 191035Z 31011G16KT 07/M01 A3008 RMK A01 T00701012  RH  056%=      5-min Rain = 0
KJU1 191036Z 30011KT 07/M01 A3008 RMK A01 T00701012  RH  056%=      5-min Rain = 0
KJU1 191037Z 31012G18KT 07/M01 A3008 RMK A01 T00701013  RH  056%=      5-min Rain = 0
KJU1 191038Z 30010KT 07/M01 A3009 RMK A01 T00701013  RH  056%=      5-min Rain = 0
KJU1 191039Z 30007KT 07/M01 A3009 RMK A01 T00701012  RH  056%=      5-min Rain = 0
KJU1 191040Z 29010G15KT 07/M01 A3009 RMK A01 T00691012  RH  056%=      5-min Rain = 0
KJU1 191041Z 32014G19KT 07/M01 A3009 RMK A01 T00691014  RH  056%=      5-min Rain = 0
KJU1 191042Z 30010KT 07/M01 A3009 RMK A01 T00691014  RH  055%=      5-min Rain = 0
KJU1 191043Z 30008G14KT 07/M01 A3009 RMK A01 T00691014  RH  055%=      5-min Rain = 0
KJU1 191044Z 31008KT 07/M01 A3009 RMK A01 T00691014  RH  055%=      5-min Rain = 0
KJU1 191045Z 31011KT 07/M01 A3009 RMK A01 T00691014  RH  056%=      5-min Rain = 0
KJU1 191046Z 31013KT 07/M01 A3009 RMK A01 T00691014  RH  056%=      5-min Rain = 0
KJU1 191047Z 31010G15KT 07/M01 A3009 RMK A01 T00681014  RH  056%=      5-min Rain = 0
KJU1 191048Z 30013KT 07/M01 A3009 RMK A01 T00681014  RH  056%=      5-min Rain = 0
KJU1 191049Z 29009G15KT 07/M02 A3009 RMK A01 T00681015  RH  056%=      5-min Rain = 0
KJU1 191050Z 30008KT 07/M01 A3009 RMK A01 T00681014  RH  056%=      5-min Rain = 0
KJU1 191051Z 31009KT 07/M01 A3009 RMK A01 T00681014  RH  056%=      5-min Rain = 0
KJU1 191052Z 32009KT 07/M01 A3009 RMK A01 T00671014  RH  056%=      5-min Rain = 0
KJU1 191053Z 31008G16KT 07/M02 A3009 RMK A01 T00671015  RH  056%=      5-min Rain = 0
KJU1 191054Z 31009KT 07/M01 A3009 RMK A01 T00671014  RH  056%=      5-min Rain = 0
KJU1 191055Z 31010KT 07/M01 A301 RMK A01 T00661014  RH  057%=      5-min Rain = 0
KJU1 191056Z 31013G22KT 07/M01 A301 RMK A01 T00661014  RH  057%=      5-min Rain = 0
KJU1 191057Z 31011G16KT 07/M01 A301 RMK A01 T00661014  RH  056%=      5-min Rain = 0
KJU1 191058Z 31012G17KT 07/M02 A301 RMK A01 T00671015  RH  056%=      5-min Rain = 0
KJU1 191059Z 31010G15KT 07/M01 A301 RMK A01 T00671014  RH  056%=      5-min Rain = 0
KJU1 191100Z 31008G13KT 07/M01 A301 RMK A01 T00671014  RH  056%=      5-min Rain = 0
KJU1 191101Z 31008KT 07/M01 A301 RMK A01 T00671014  RH  056%=      5-min Rain = 0
KJU1 191102Z 31013G19KT 07/M01 A301 RMK A01 T00671013  RH  057%=      5-min Rain = 0
KJU1 191103Z 31010KT 07/M01 A301 RMK A01 T00671014  RH  056%=      5-min Rain = 0
KJU1 191104Z 31010G16KT 07/M01 A301 RMK A01 T00671014  RH  056%=      5-min Rain = 0
KJU1 191105Z 31011KT 07/M01 A301 RMK A01 T00671014  RH  056%=      5-min Rain = 0
KJU1 191106Z 31011G17KT 07/M01 A301 RMK A01 T00671013  RH  057%=      5-min Rain = 0
KJU1 191107Z 30012G18KT 07/M01 A301 RMK A01 T00671013  RH  057%=      5-min Rain = 0
KJU1 191108Z 31010G15KT 07/M01 A301 RMK A01 T00671013  RH  057%=      5-min Rain = 0
KJU1 191109Z 32011KT 07/M01 A301 RMK A01 T00671013  RH  057%=      5-min Rain = 0
KJU1 191110Z 32012G18KT 07/M01 A3011 RMK A01 T00671013  RH  057%=      5-min Rain = 0
KJU1 191111Z 31011KT 07/M01 A3011 RMK A01 T00671013  RH  057%=      5-min Rain = 0
KJU1 191112Z 32009KT 07/M01 A3011 RMK A01 T00671013  RH  057%=      5-min Rain = 0
KJU1 191113Z 31008G13KT 07/M01 A3011 RMK A01 T00671012  RH  057%=      5-min Rain = 0
KJU1 191114Z 32009KT 07/M01 A3011 RMK A01 T00671012  RH  057%=      5-min Rain = 0
KJU1 191115Z 32014G19KT 07/M01 A3011 RMK A01 T00671012  RH  057%=      5-min Rain = 0
KJU1 191116Z 31011KT 07/M01 A3011 RMK A01 T00671012  RH  057%=      5-min Rain = 0
KJU1 191117Z 32010KT 07/M01 A3011 RMK A01 T00671012  RH  057%=      5-min Rain = 0
KJU1 191118Z 32012G19KT 07/M01 A3011 RMK A01 T00661012  RH  057%=      5-min Rain = 0
KJU1 191119Z 32012G17KT 07/M01 A3011 RMK A01 T00661012  RH  057%=      5-min Rain = 0
KJU1 191120Z 32015KT 07/M01 A3011 RMK A01 T00661013  RH  057%=      5-min Rain = 0
KJU1 191121Z 33012KT 07/M01 A3012 RMK A01 T00661013  RH  057%=      5-min Rain = 0
KJU1 191122Z 34017KT 07/M01 A3012 RMK A01 T00651013  RH  057%=      5-min Rain = 0
KJU1 191123Z 34012G18KT 07/M01 A3012 RMK A01 T00651013  RH  057%=      5-min Rain = 0
KJU1 191124Z 34014KT 06/M01 A3012 RMK A01 T00641013  RH  058%=      5-min Rain = 0
KJU1 191125Z 33010KT 06/M01 A3012 RMK A01 T00641013  RH  058%=      5-min Rain = 0
KJU1 191126Z 32010G17KT 06/M01 A3012 RMK A01 T00641013  RH  058%=      5-min Rain = 0
KJU1 191127Z 33014G20KT 06/M01 A3013 RMK A01 T00631013  RH  058%=      5-min Rain = 0
KJU1 191128Z 32017G23KT 06/M01 A3013 RMK A01 T00631013  RH  058%=      5-min Rain = 0
KJU1 191129Z 32011KT 06/M01 A3013 RMK A01 T00621013  RH  059%=      5-min Rain = 0
KJU1 191130Z 32014G20KT 06/M01 A3013 RMK A01 T00611013  RH  059%=      5-min Rain = 0
KJU1 191131Z 32012KT 06/M01 A3013 RMK A01 T00611012  RH  059%=      5-min Rain = 0
KJU1 191132Z 31013G23KT 06/M01 A3013 RMK A01 T00601012  RH  060%=      5-min Rain = 0
KJU1 191133Z 31017G23KT 06/M01 A3013 RMK A01 T00601012  RH  060%=      5-min Rain = 0
KJU1 191134Z 32016KT 06/M01 A3013 RMK A01 T00591013  RH  060%=      5-min Rain = 0
KJU1 191135Z 33011G16KT 06/M01 A3013 RMK A01 T00591012  RH  060%=      5-min Rain = 0
KJU1 191136Z 33008G13KT 06/M01 A3014 RMK A01 T00591012  RH  060%=      5-min Rain = 0
KJU1 191137Z 33009KT 06/M01 A3014 RMK A01 T00581012  RH  061%=      5-min Rain = 0
KJU1 191138Z 32006KT 06/M01 A3014 RMK A01 T00581012  RH  061%=      5-min Rain = 0
KJU1 191139Z 32007KT 06/M01 A3014 RMK A01 T00571011  RH  061%=      5-min Rain = 0
KJU1 191140Z 31008KT 06/M01 A3014 RMK A01 T00581011  RH  062%=      5-min Rain = 0
KJU1 191141Z 32015G21KT 06/M01 A3014 RMK A01 T00571011  RH  062%=      5-min Rain = 0
KJU1 191142Z 32017KT 06/M01 A3014 RMK A01 T00571012  RH  061%=      5-min Rain = 0
KJU1 191143Z 33018G25KT 06/M01 A3014 RMK A01 T00571012  RH  061%=      5-min Rain = 0
KJU1 191144Z 33012G21KT 06/M01 A3014 RMK A01 T00571012  RH  061%=      5-min Rain = 0
KJU1 191145Z 33015KT 06/M01 A3015 RMK A01 T00571013  RH  061%=      5-min Rain = 0
KJU1 191146Z 31014G20KT 06/M01 A3015 RMK A01 T00571013  RH  061%=      5-min Rain = 0
KJU1 191147Z 34014G20KT 06/M01 A3015 RMK A01 T00571012  RH  061%=      5-min Rain = 0
KJU1 191148Z 32011G16KT 06/M01 A3015 RMK A01 T00571012  RH  061%=      5-min Rain = 0
KJU1 191149Z 32014G19KT 06/M01 A3015 RMK A01 T00571012  RH  061%=      5-min Rain = 0
KJU1 191150Z 33013G21KT 06/M01 A3015 RMK A01 T00561013  RH  061%=      5-min Rain = 0
KJU1 191151Z 32012G22KT 06/M01 A3015 RMK A01 T00561012  RH  061%=      5-min Rain = 0
KJU1 191152Z 31014G19KT 06/M01 A3015 RMK A01 T00561012  RH  061%=      5-min Rain = 0
KJU1 191153Z 32011KT 06/M01 A3015 RMK A01 T00571012  RH  061%=      5-min Rain = 0
KJU1 191154Z 32009KT 06/M01 A3016 RMK A01 T00571012  RH  061%=      5-min Rain = 0
KJU1 191155Z 33007KT 06/M01 A3016 RMK A01 T00561012  RH  061%=      5-min Rain = 0
KJU1 191156Z 33012G19KT 06/M01 A3016 RMK A01 T00561012  RH  061%=      5-min Rain = 0
KJU1 191157Z 33013KT 06/M01 A3016 RMK A01 T00561013  RH  061%=      5-min Rain = 0
KJU1 191158Z 33009KT 06/M01 A3016 RMK A01 T00561013  RH  061%=      5-min Rain = 0
KJU1 191159Z 31007KT 06/M01 A3016 RMK A01 T00561013  RH  061%=      5-min Rain = 0
KJU1 191200Z 34010G15KT 06/M01 A3016 RMK A01 T00561012  RH  062%=      5-min Rain = 0
KJU1 191201Z 34014G19KT 06/M01 A3016 RMK A01 T00561012  RH  062%=      5-min Rain = 0
KJU1 191202Z 33010G15KT 06/M01 A3016 RMK A01 T00551012  RH  062%=      5-min Rain = 0
KJU1 191203Z 34016G22KT 06/M01 A3016 RMK A01 T00551013  RH  061%=      5-min Rain = 0
KJU1 191204Z 33012G18KT 06/M01 A3016 RMK A01 T00551014  RH  061%=      5-min Rain = 0
KJU1 191205Z 33016G24KT 06/M01 A3016 RMK A01 T00551014  RH  061%=      5-min Rain = 0
KJU1 191206Z 32015G20KT 06/M02 A3016 RMK A01 T00551015  RH  061%=      5-min Rain = 0
KJU1 191207Z 34016KT 05/M02 A3016 RMK A01 T00541016  RH  060%=      5-min Rain = 0
KJU1 191208Z 33011G16KT 06/M02 A3016 RMK A01 T00551016  RH  060%=      5-min Rain = 0
KJU1 191209Z 33009KT 06/M02 A3016 RMK A01 T00551015  RH  061%=      5-min Rain = 0
KJU1 191210Z 33010G16KT 06/M02 A3016 RMK A01 T00551015  RH  061%=      5-min Rain = 0
KJU1 191211Z 33010KT 05/M02 A3016 RMK A01 T00541015  RH  061%=      5-min Rain = 0
KJU1 191212Z 33010G15KT 05/M02 A3016 RMK A01 T00541015  RH  061%=      5-min Rain = 0
KJU1 191213Z 31013G20KT 05/M02 A3016 RMK A01 T00541015  RH  061%=      5-min Rain = 0
KJU1 191214Z 32010G16KT 05/M02 A3016 RMK A01 T00541015  RH  061%=      5-min Rain = 0
KJU1 191215Z 32013G19KT 05/M02 A3016 RMK A01 T00541015  RH  061%=      5-min Rain = 0
KJU1 191216Z 33010G15KT 05/M02 A3016 RMK A01 T00531016  RH  061%=      5-min Rain = 0
KJU1 191217Z 30014G19KT 05/M02 A3016 RMK A01 T00531016  RH  061%=      5-min Rain = 0
KJU1 191218Z 31011G16KT 05/M02 A3016 RMK A01 T00531016  RH  061%=      5-min Rain = 0
KJU1 191219Z 33012G21KT 05/M02 A3017 RMK A01 T00521016  RH  061%=      5-min Rain = 0
KJU1 191220Z 32015KT 05/M02 A3017 RMK A01 T00521017  RH  061%=      5-min Rain = 0
KJU1 191221Z 32014G19KT 05/M02 A3016 RMK A01 T00511017  RH  061%=      5-min Rain = 0
KJU1 191222Z 33014KT 05/M02 A3016 RMK A01 T00511017  RH  061%=      5-min Rain = 0
KJU1 191223Z 33016G26KT 05/M02 A3017 RMK A01 T00511018  RH  061%=      5-min Rain = 0
KJU1 191224Z 33016G21KT 05/M02 A3017 RMK A01 T00511018  RH  061%=      5-min Rain = 0
KJU1 191225Z 32016G28KT 05/M02 A3017 RMK A01 T00501018  RH  061%=      5-min Rain = 0
KJU1 191226Z 34015G23KT 05/M02 A3017 RMK A01 T00511018  RH  061%=      5-min Rain = 0
KJU1 191227Z 33011G16KT 05/M02 A3017 RMK A01 T00501018  RH  061%=      5-min Rain = 0
KJU1 191228Z 33010KT 05/M02 A3017 RMK A01 T00501018  RH  062%=      5-min Rain = 0
KJU1 191229Z 34010KT 05/M02 A3017 RMK A01 T00491018  RH  062%=      5-min Rain = 0
KJU1 191230Z 33007KT 05/M02 A3017 RMK A01 T00491018  RH  062%=      5-min Rain = 0
KJU1 191231Z 33011KT 05/M02 A3017 RMK A01 T00491018  RH  062%=      5-min Rain = 0
KJU1 191232Z 33009G17KT 05/M02 A3017 RMK A01 T00491018  RH  062%=      5-min Rain = 0
KJU1 191233Z 33013G19KT 05/M02 A3018 RMK A01 T00481018  RH  062%=      5-min Rain = 0
KJU1 191234Z 33013KT 05/M02 A3018 RMK A01 T00481018  RH  062%=      5-min Rain = 0
KJU1 191235Z 32012KT 05/M02 A3018 RMK A01 T00481018  RH  063%=      5-min Rain = 0
KJU1 191236Z 34012KT 05/M02 A3018 RMK A01 T00481017  RH  063%=      5-min Rain = 0
KJU1 191237Z 33008KT 05/M02 A3018 RMK A01 T00481018  RH  063%=      5-min Rain = 0
KJU1 191238Z 32004KT 05/M02 A3018 RMK A01 T00471018  RH  063%=      5-min Rain = 0
KJU1 191239Z 34006KT 05/M02 A3018 RMK A01 T00471017  RH  063%=      5-min Rain = 0
KJU1 191240Z 33012G17KT 05/M02 A3018 RMK A01 T00471017  RH  063%=      5-min Rain = 0
KJU1 191241Z 33012KT 05/M02 A3018 RMK A01 T00461017  RH  064%=      5-min Rain = 0
KJU1 191242Z 34010KT 05/M02 A3019 RMK A01 T00471017  RH  064%=      5-min Rain = 0
KJU1 191243Z 34010KT 05/M02 A3019 RMK A01 T00461017  RH  063%=      5-min Rain = 0
KJU1 191244Z 32008KT 05/M02 A3019 RMK A01 T00461017  RH  064%=      5-min Rain = 0
KJU1 191245Z 33008KT 05/M02 A3019 RMK A01 T00461017  RH  064%=      5-min Rain = 0
KJU1 191246Z 34006KT 05/M02 A3019 RMK A01 T00461017  RH  063%=      5-min Rain = 0
KJU1 191247Z 33011G18KT 05/M02 A3019 RMK A01 T00461017  RH  064%=      5-min Rain = 0
KJU1 191248Z 32010G15KT 05/M02 A3019 RMK A01 T00461017  RH  064%=      5-min Rain = 0
KJU1 191249Z 34011KT 05/M02 A3019 RMK A01 T00461017  RH  064%=      5-min Rain = 0
KJU1 191250Z 34010KT 05/M02 A3019 RMK A01 T00461017  RH  064%=      5-min Rain = 0
KJU1 191251Z 34009KT 05/M02 A3019 RMK A01 T00461016  RH  064%=      5-min Rain = 0
KJU1 191252Z 34008KT 05/M02 A3019 RMK A01 T00451016  RH  064%=      5-min Rain = 0
KJU1 191253Z 34010G16KT 05/M02 A3019 RMK A01 T00461016  RH  064%=      5-min Rain = 0
KJU1 191254Z 34010G15KT 05/M02 A3019 RMK A01 T00451016  RH  064%=      5-min Rain = 0
KJU1 191255Z 33008KT 05/M02 A3019 RMK A01 T00451016  RH  064%=      5-min Rain = 0
KJU1 191256Z 33007KT 05/M02 A3019 RMK A01 T00451016  RH  064%=      5-min Rain = 0
KJU1 191257Z 33007KT 05/M02 A3019 RMK A01 T00451017  RH  064%=      5-min Rain = 0
KJU1 191258Z 33005KT 05/M02 A3019 RMK A01 T00451016  RH  064%=      5-min Rain = 0
KJU1 191259Z 34007KT 04/M02 A3019 RMK A01 T00441016  RH  065%=      5-min Rain = 0
KJU1 191300Z 35008KT 04/M02 A3019 RMK A01 T00441016  RH  065%=      5-min Rain = 0
KJU1 191301Z 34009KT 04/M02 A3019 RMK A01 T00441016  RH  065%=      5-min Rain = 0
KJU1 191302Z 31008KT 04/M02 A3019 RMK A01 T00441017  RH  065%=      5-min Rain = 0
KJU1 191303Z 32006KT 04/M02 A3019 RMK A01 T00441016  RH  065%=      5-min Rain = 0
KJU1 191304Z 32007KT 05/M02 A3019 RMK A01 T00451016  RH  065%=      5-min Rain = 0
KJU1 191305Z 32007KT 04/M02 A3019 RMK A01 T00441016  RH  065%=      5-min Rain = 0
KJU1 191306Z 33006KT 04/M02 A302 RMK A01 T00441016  RH  065%=      5-min Rain = 0
KJU1 191307Z 32007KT 04/M02 A3019 RMK A01 T00441016  RH  065%=      5-min Rain = 0
KJU1 191308Z 33007KT 04/M02 A302 RMK A01 T00441016  RH  065%=      5-min Rain = 0
KJU1 191309Z 34006KT 04/M02 A302 RMK A01 T00441016  RH  065%=      5-min Rain = 0
KJU1 191310Z 34008KT 04/M02 A302 RMK A01 T00441016  RH  065%=      5-min Rain = 0
KJU1 191311Z 32007KT 04/M02 A302 RMK A01 T00441016  RH  065%=      5-min Rain = 0
KJU1 191312Z 33007KT 04/M02 A302 RMK A01 T00441016  RH  065%=      5-min Rain = 0
KJU1 191313Z 33007KT 04/M02 A302 RMK A01 T00441016  RH  065%=      5-min Rain = 0
KJU1 191314Z 31004KT 04/M02 A302 RMK A01 T00441015  RH  065%=      5-min Rain = 0
KJU1 191315Z 33004KT 04/M02 A302 RMK A01 T00441015  RH  066%=      5-min Rain = 0
KJU1 191316Z 31004KT 04/M02 A302 RMK A01 T00431015  RH  066%=      5-min Rain = 0
KJU1 191317Z 33005KT 04/M02 A302 RMK A01 T00431015  RH  066%=      5-min Rain = 0
KJU1 191318Z 33003KT 04/M01 A302 RMK A01 T00431014  RH  066%=      5-min Rain = 0
KJU1 191319Z 33005KT 04/M02 A302 RMK A01 T00431015  RH  066%=      5-min Rain = 0
KJU1 191320Z 33005KT 04/M01 A302 RMK A01 T00431014  RH  066%=      5-min Rain = 0
KJU1 191321Z 31004KT 04/M01 A302 RMK A01 T00441014  RH  066%=      5-min Rain = 0
KJU1 191322Z 32005KT 04/M01 A302 RMK A01 T00441014  RH  066%=      5-min Rain = 0
KJU1 191323Z 32006KT 04/M01 A302 RMK A01 T00441014  RH  066%=      5-min Rain = 0
KJU1 191324Z 32005KT 05/M01 A302 RMK A01 T00451014  RH  066%=      5-min Rain = 0
KJU1 191325Z 32004KT 05/M01 A302 RMK A01 T00451014  RH  066%=      5-min Rain = 0
KJU1 191326Z 33005KT 05/M01 A302 RMK A01 T00451014  RH  066%=      5-min Rain = 0
KJU1 191327Z 32004KT 05/M01 A302 RMK A01 T00451014  RH  066%=      5-min Rain = 0
KJU1 191328Z 33003KT 05/M01 A302 RMK A01 T00451013  RH  066%=      5-min Rain = 0
KJU1 191329Z 32001KT 05/M01 A302 RMK A01 T00451013  RH  066%=      5-min Rain = 0
KJU1 191330Z 33002KT 05/M01 A302 RMK A01 T00461013  RH  066%=      5-min Rain = 0
KJU1 191331Z 32004KT 05/M01 A302 RMK A01 T00451013  RH  066%=      5-min Rain = 0
KJU1 191332Z 34003KT 05/M01 A302 RMK A01 T00451013  RH  066%=      5-min Rain = 0
KJU1 191333Z 32003KT 05/M01 A302 RMK A01 T00451013  RH  066%=      5-min Rain = 0
KJU1 191334Z 31003KT 05/M01 A3021 RMK A01 T00461013  RH  066%=      5-min Rain = 0
KJU1 191335Z 31005KT 05/M01 A3021 RMK A01 T00461012  RH  066%=      5-min Rain = 0
KJU1 191336Z 31007KT 05/M01 A3021 RMK A01 T00461013  RH  066%=      5-min Rain = 0
KJU1 191337Z 32006KT 05/M01 A3021 RMK A01 T00461013  RH  065%=      5-min Rain = 0
KJU1 191338Z 33004KT 05/M01 A3021 RMK A01 T00461013  RH  065%=      5-min Rain = 0
KJU1 191339Z 33005KT 05/M01 A3021 RMK A01 T00461013  RH  065%=      5-min Rain = 0
KJU1 191340Z 32003KT 05/M01 A3021 RMK A01 T00461013  RH  065%=      5-min Rain = 0
KJU1 191341Z 32004KT 05/M01 A3021 RMK A01 T00461013  RH  065%=      5-min Rain = 0
KJU1 191342Z 31007KT 05/M01 A3021 RMK A01 T00461013  RH  065%=      5-min Rain = 0
KJU1 191343Z 32004G9KT 05/M01 A3021 RMK A01 T00471013  RH  065%=      5-min Rain = 0
KJU1 191344Z 33007KT 05/M01 A3021 RMK A01 T00471013  RH  065%=      5-min Rain = 0
KJU1 191345Z 33007KT 05/M01 A3021 RMK A01 T00471013  RH  065%=      5-min Rain = 0
KJU1 191346Z 32007KT 05/M01 A3021 RMK A01 T00471014  RH  065%=      5-min Rain = 0
KJU1 191347Z 31004KT 05/M01 A3021 RMK A01 T00471014  RH  064%=      5-min Rain = 0
KJU1 191348Z 31003KT 05/M01 A3021 RMK A01 T00471014  RH  065%=      5-min Rain = 0
KJU1 191349Z 32006KT 05/M01 A3021 RMK A01 T00471013  RH  065%=      5-min Rain = 0
KJU1 191350Z 32006KT 05/M01 A3021 RMK A01 T00471013  RH  065%=      5-min Rain = 0
KJU1 191351Z 31008KT 05/M01 A3021 RMK A01 T00471013  RH  065%=      5-min Rain = 0
KJU1 191352Z 31008KT 05/M01 A3021 RMK A01 T00471014  RH  064%=      5-min Rain = 0
KJU1 191353Z 31006KT 05/M01 A3021 RMK A01 T00471014  RH  064%=      5-min Rain = 0
KJU1 191354Z 33006KT 05/M02 A3021 RMK A01 T00471015  RH  064%=      5-min Rain = 0
KJU1 191355Z 31004KT 05/M01 A3021 RMK A01 T00471014  RH  064%=      5-min Rain = 0
KJU1 191356Z 32004KT 05/M01 A3021 RMK A01 T00471014  RH  065%=      5-min Rain = 0
KJU1 191357Z 31005KT 05/M01 A3022 RMK A01 T00471014  RH  065%=      5-min Rain = 0
KJU1 191358Z 30004KT 05/M01 A3022 RMK A01 T00471013  RH  065%=      5-min Rain = 0
KJU1 191359Z 30004KT 05/M01 A3022 RMK A01 T00461013  RH  065%=      5-min Rain = 0
KJU1 191400Z 31004KT 05/M01 A3022 RMK A01 T00461013  RH  065%=      5-min Rain = 0
KJU1 191401Z 30003KT 05/M01 A3022 RMK A01 T00461014  RH  065%=      5-min Rain = 0
KJU1 191402Z 31004KT 05/M01 A3022 RMK A01 T00461014  RH  065%=      5-min Rain = 0
KJU1 191403Z 31005KT 05/M01 A3022 RMK A01 T00451013  RH  066%=      5-min Rain = 0
KJU1 191404Z 30005KT 05/M01 A3022 RMK A01 T00451013  RH  066%=      5-min Rain = 0
KJU1 191405Z 30005KT 05/M01 A3022 RMK A01 T00451014  RH  066%=      5-min Rain = 0
KJU1 191406Z 30005KT 05/M01 A3022 RMK A01 T00461014  RH  065%=      5-min Rain = 0
KJU1 191407Z 30005KT 05/M01 A3022 RMK A01 T00451014  RH  065%=      5-min Rain = 0
KJU1 191408Z 31005KT 05/M01 A3022 RMK A01 T00451014  RH  065%=      5-min Rain = 0
KJU1 191409Z 30004KT 05/M01 A3022 RMK A01 T00451014  RH  065%=      5-min Rain = 0
KJU1 191410Z 30005KT 05/M01 A3022 RMK A01 T00461013  RH  066%=      5-min Rain = 0
KJU1 191411Z 31005KT 05/M01 A3022 RMK A01 T00461013  RH  065%=      5-min Rain = 0
KJU1 191412Z 31004KT 05/M01 A3022 RMK A01 T00461013  RH  065%=      5-min Rain = 0
KJU1 191413Z 32004KT 05/M01 A3022 RMK A01 T00471014  RH  065%=      5-min Rain = 0
KJU1 191414Z 31006KT 05/M01 A3022 RMK A01 T00471013  RH  065%=      5-min Rain = 0
KJU1 191415Z 32006KT 05/M01 A3022 RMK A01 T00481013  RH  065%=      5-min Rain = 0
KJU1 191416Z 31004KT 05/M01 A3022 RMK A01 T00481014  RH  064%=      5-min Rain = 0
KJU1 191417Z 31005KT 05/M01 A3022 RMK A01 T00481014  RH  064%=      5-min Rain = 0
KJU1 191418Z 31004KT 05/M01 A3022 RMK A01 T00491013  RH  064%=      5-min Rain = 0
KJU1 191419Z 32004KT 05/M01 A3022 RMK A01 T00491013  RH  064%=      5-min Rain = 0
KJU1 191420Z 31006KT 05/M01 A3022 RMK A01 T00491013  RH  064%=      5-min Rain = 0
KJU1 191421Z 32005KT 05/M01 A3022 RMK A01 T00501014  RH  064%=      5-min Rain = 0
KJU1 191422Z 31005KT 05/M01 A3022 RMK A01 T00501013  RH  064%=      5-min Rain = 0
KJU1 191423Z 31005KT 05/M01 A3022 RMK A01 T00501013  RH  064%=      5-min Rain = 0
KJU1 191424Z 31006KT 05/M01 A3023 RMK A01 T00501013  RH  064%=      5-min Rain = 0
KJU1 191425Z 32005KT 05/M01 A3023 RMK A01 T00501012  RH  064%=      5-min Rain = 0
KJU1 191426Z 32006KT 05/M01 A3023 RMK A01 T00511012  RH  064%=      5-min Rain = 0
KJU1 191427Z 32004KT 05/M01 A3023 RMK A01 T00511012  RH  064%=      5-min Rain = 0
KJU1 191428Z 30004KT 05/M01 A3023 RMK A01 T00511011  RH  064%=      5-min Rain = 0
KJU1 191429Z 31004KT 05/M01 A3022 RMK A01 T00521011  RH  064%=      5-min Rain = 0
KJU1 191430Z 31003KT 05/M01 A3022 RMK A01 T00521010  RH  064%=      5-min Rain = 0
KJU1 191431Z 32006KT 05/M01 A3022 RMK A01 T00521011  RH  064%=      5-min Rain = 0
KJU1 191432Z 32006KT 05/M01 A3022 RMK A01 T00531012  RH  063%=      5-min Rain = 0
KJU1 191433Z 29005KT 05/M01 A3022 RMK A01 T00531011  RH  063%=      5-min Rain = 0
KJU1 191434Z 31005KT 05/M01 A3023 RMK A01 T00541011  RH  063%=      5-min Rain = 0
KJU1 191435Z 31007KT 05/M01 A3023 RMK A01 T00541011  RH  063%=      5-min Rain = 0
KJU1 191436Z 30010G15KT 06/M01 A3023 RMK A01 T00551011  RH  062%=      5-min Rain = 0
KJU1 191437Z 29008KT 06/M01 A3023 RMK A01 T00551012  RH  062%=      5-min Rain = 0
KJU1 191438Z 31009KT 06/M01 A3023 RMK A01 T00551011  RH  062%=      5-min Rain = 0
KJU1 191439Z 32006G12KT 06/M01 A3023 RMK A01 T00551011  RH  062%=      5-min Rain = 0
KJU1 191440Z 31008KT 06/M01 A3023 RMK A01 T00561011  RH  062%=      5-min Rain = 0
KJU1 191441Z 30008KT 06/M01 A3023 RMK A01 T00561012  RH  062%=      5-min Rain = 0
KJU1 191442Z 31010KT 06/M01 A3023 RMK A01 T00571011  RH  062%=      5-min Rain = 0
KJU1 191443Z 32010KT 06/M01 A3023 RMK A01 T00561013  RH  061%=      5-min Rain = 0
KJU1 191444Z 31010KT 06/M01 A3023 RMK A01 T00571014  RH  060%=      5-min Rain = 0
KJU1 191445Z 32006KT 06/M01 A3023 RMK A01 T00571013  RH  061%=      5-min Rain = 0
KJU1 191446Z 32006G15KT 06/M01 A3023 RMK A01 T00581012  RH  061%=      5-min Rain = 0
KJU1 191447Z 32012KT 06/M01 A3023 RMK A01 T00581013  RH  060%=      5-min Rain = 0
KJU1 191448Z 33011G16KT 06/M01 A3023 RMK A01 T00581014  RH  060%=      5-min Rain = 0
KJU1 191449Z 31010KT 06/M01 A3023 RMK A01 T00581014  RH  060%=      5-min Rain = 0
KJU1 191450Z 32008G14KT 06/M01 A3023 RMK A01 T00581014  RH  060%=      5-min Rain = 0
KJU1 191451Z 32007KT 06/M01 A3023 RMK A01 T00591014  RH  060%=      5-min Rain = 0
KJU1 191452Z 32007KT 06/M01 A3023 RMK A01 T00601012  RH  060%=      5-min Rain = 0
KJU1 191453Z 31007KT 06/M01 A3023 RMK A01 T00601012  RH  060%=      5-min Rain = 0
KJU1 191454Z 32006KT 06/M01 A3024 RMK A01 T00611011  RH  060%=      5-min Rain = 0
KJU1 191455Z 34008G13KT 06/M01 A3024 RMK A01 T00611011  RH  060%=      5-min Rain = 0
KJU1 191456Z 32008KT 06/M01 A3024 RMK A01 T00611011  RH  060%=      5-min Rain = 0
KJU1 191457Z 30006KT 06/M01 A3024 RMK A01 T00611011  RH  060%=      5-min Rain = 0
KJU1 191458Z 32006KT 06/M01 A3024 RMK A01 T00621010  RH  060%=      5-min Rain = 0
KJU1 191459Z 33006G12KT 06/M01 A3024 RMK A01 T00621008  RH  061%=      5-min Rain = 0
KJU1 191500Z 31012KT 06/M01 A3024 RMK A01 T00631010  RH  060%=      5-min Rain = 0
KJU1 191501Z 30012G19KT 06/M01 A3024 RMK A01 T00621012  RH  059%=      5-min Rain = 0
KJU1 191502Z 31015KT 06/M01 A3024 RMK A01 T00611014  RH  059%=      5-min Rain = 0
KJU1 191503Z 31013G18KT 06/M02 A3024 RMK A01 T00601015  RH  059%=      5-min Rain = 0
KJU1 191504Z 32015G23KT 06/M02 A3024 RMK A01 T00591015  RH  059%=      5-min Rain = 0
KJU1 191505Z 32012G19KT 06/M02 A3024 RMK A01 T00591016  RH  059%=      5-min Rain = 0
KJU1 191506Z 33014G20KT 06/M02 A3024 RMK A01 T00591015  RH  059%=      5-min Rain = 0
KJU1 191507Z 32012G19KT 06/M02 A3024 RMK A01 T00591015  RH  059%=      5-min Rain = 0
KJU1 191508Z 32010KT 06/M02 A3024 RMK A01 T00601015  RH  059%=      5-min Rain = 0
KJU1 191509Z 33014KT 06/M02 A3024 RMK A01 T00601015  RH  058%=      5-min Rain = 0
KJU1 191510Z 33011KT 06/M02 A3025 RMK A01 T00601017  RH  058%=      5-min Rain = 0
KJU1 191511Z 31012KT 06/M02 A3025 RMK A01 T00601017  RH  058%=      5-min Rain = 0
KJU1 191512Z 32010G16KT 06/M02 A3025 RMK A01 T00591018  RH  058%=      5-min Rain = 0
KJU1 191513Z 33008KT 06/M02 A3025 RMK A01 T00601017  RH  058%=      5-min Rain = 0
KJU1 191514Z 34010KT 06/M02 A3025 RMK A01 T00611015  RH  058%=      5-min Rain = 0
KJU1 191515Z 32010KT 06/M02 A3025 RMK A01 T00621015  RH  058%=      5-min Rain = 0
KJU1 191516Z 32007KT 06/M02 A3025 RMK A01 T00621015  RH  058%=      5-min Rain = 0
KJU1 191517Z 31011KT 06/M02 A3025 RMK A01 T00621016  RH  057%=      5-min Rain = 0
KJU1 191518Z 30017G23KT 06/M02 A3025 RMK A01 T00621018  RH  057%=      5-min Rain = 0
KJU1 191519Z 31015G21KT 06/M02 A3025 RMK A01 T00621019  RH  056%=      5-min Rain = 0
KJU1 191520Z 31014G21KT 06/M02 A3026 RMK A01 T00621020  RH  056%=      5-min Rain = 0
KJU1 191521Z 32014G22KT 06/M02 A3026 RMK A01 T00621020  RH  056%=      5-min Rain = 0
KJU1 191522Z 31017G24KT 06/M02 A3026 RMK A01 T00621021  RH  055%=      5-min Rain = 0
KJU1 191523Z 32015G20KT 06/M02 A3026 RMK A01 T00611022  RH  055%=      5-min Rain = 0
KJU1 191524Z 33013KT 06/M02 A3026 RMK A01 T00611022  RH  055%=      5-min Rain = 0
KJU1 191525Z 33013G19KT 06/M02 A3026 RMK A01 T00611022  RH  055%=      5-min Rain = 0
KJU1 191526Z 32012KT 06/M02 A3026 RMK A01 T00621023  RH  055%=      5-min Rain = 0
KJU1 191527Z 32014G21KT 06/M02 A3026 RMK A01 T00621023  RH  055%=      5-min Rain = 0
KJU1 191528Z 34015G21KT 06/M02 A3026 RMK A01 T00621023  RH  055%=      5-min Rain = 0
KJU1 191529Z 33014KT 06/M02 A3026 RMK A01 T00621023  RH  054%=      5-min Rain = 0
KJU1 191530Z 33013G18KT 06/M02 A3026 RMK A01 T00621023  RH  054%=      5-min Rain = 0
KJU1 191531Z 34011KT 06/M02 A3026 RMK A01 T00631024  RH  054%=      5-min Rain = 0
KJU1 191532Z 34008G15KT 06/M02 A3026 RMK A01 T00631023  RH  054%=      5-min Rain = 0
KJU1 191533Z 32011G16KT 06/M02 A3026 RMK A01 T00641022  RH  054%=      5-min Rain = 0
KJU1 191534Z 32008KT 07/M02 A3026 RMK A01 T00651022  RH  054%=      5-min Rain = 0
KJU1 191535Z 33010G15KT 07/M02 A3027 RMK A01 T00651021  RH  054%=      5-min Rain = 0
KJU1 191536Z 34012KT 07/M02 A3027 RMK A01 T00661022  RH  053%=      5-min Rain = 0
KJU1 191537Z 33011KT 07/M02 A3027 RMK A01 T00661022  RH  053%=      5-min Rain = 0
KJU1 191538Z 34010G16KT 07/M02 A3027 RMK A01 T00651023  RH  053%=      5-min Rain = 0
KJU1 191539Z 34016G21KT 07/M02 A3027 RMK A01 T00661023  RH  053%=      5-min Rain = 0
KJU1 191540Z 33013G19KT 07/M03 A3027 RMK A01 T00651025  RH  053%=      5-min Rain = 0
KJU1 191541Z 31014G19KT 06/M03 A3027 RMK A01 T00641025  RH  053%=      5-min Rain = 0
KJU1 191542Z 33010G15KT 06/M03 A3027 RMK A01 T00641025  RH  053%=      5-min Rain = 0
KJU1 191543Z 34013G21KT 07/M02 A3027 RMK A01 T00651023  RH  054%=      5-min Rain = 0
KJU1 191544Z 33014G22KT 07/M02 A3027 RMK A01 T00661024  RH  053%=      5-min Rain = 0
KJU1 191545Z 34012G18KT 07/M03 A3027 RMK A01 T00661025  RH  052%=      5-min Rain = 0
KJU1 191546Z 33013KT 07/M03 A3027 RMK A01 T00651026  RH  052%=      5-min Rain = 0
KJU1 191547Z 33015G21KT 07/M03 A3027 RMK A01 T00651026  RH  052%=      5-min Rain = 0
KJU1 191548Z 34019G25KT 07/M03 A3028 RMK A01 T00651028  RH  052%=      5-min Rain = 0
KJU1 191549Z 34015G20KT 06/M03 A3028 RMK A01 T00641029  RH  051%=      5-min Rain = 0
KJU1 191550Z 33013G19KT 06/M03 A3028 RMK A01 T00641029  RH  052%=      5-min Rain = 0
KJU1 191551Z 34011G17KT 07/M03 A3028 RMK A01 T00651029  RH  051%=      5-min Rain = 0
KJU1 191552Z 33011KT 07/M03 A3028 RMK A01 T00651027  RH  052%=      5-min Rain = 0
KJU1 191553Z 33013G20KT 07/M03 A3028 RMK A01 T00661027  RH  051%=      5-min Rain = 0
KJU1 191554Z 33012G17KT 07/M03 A3028 RMK A01 T00661028  RH  051%=      5-min Rain = 0
KJU1 191555Z 33011G17KT 07/M03 A3028 RMK A01 T00661028  RH  051%=      5-min Rain = 0
KJU1 191556Z 33010KT 07/M03 A3028 RMK A01 T00671026  RH  051%=      5-min Rain = 0
KJU1 191557Z 33011G18KT 07/M03 A3028 RMK A01 T00691025  RH  051%=      5-min Rain = 0
KJU1 191558Z 33013G19KT 07/M03 A3028 RMK A01 T00691027  RH  050%=      5-min Rain = 0
KJU1 191559Z 33010G16KT 07/M03 A3028 RMK A01 T00681028  RH  051%=      5-min Rain = 0
KJU1 191600Z 33015KT 07/M03 A3028 RMK A01 T00681028  RH  051%=      5-min Rain = 0
KJU1 191601Z 33014G19KT 07/M03 A3028 RMK A01 T00681029  RH  050%=      5-min Rain = 0
KJU1 191602Z 33013KT 07/M03 A3028 RMK A01 T00671030  RH  050%=      5-min Rain = 0
KJU1 191603Z 33013G20KT 07/M03 A3028 RMK A01 T00671029  RH  050%=      5-min Rain = 0
KJU1 191604Z 31011G19KT 07/M03 A3028 RMK A01 T00681027  RH  051%=      5-min Rain = 0
KJU1 191605Z 31013G19KT 07/M03 A3028 RMK A01 T00691027  RH  050%=      5-min Rain = 0
KJU1 191606Z 33013G20KT 07/M03 A3028 RMK A01 T00681028  RH  050%=      5-min Rain = 0
KJU1 191607Z 32011KT 07/M03 A3028 RMK A01 T00691029  RH  050%=      5-min Rain = 0
KJU1 191608Z 31013KT 07/M03 A3028 RMK A01 T00681030  RH  050%=      5-min Rain = 0
KJU1 191609Z 32015KT 07/M03 A3028 RMK A01 T00681029  RH  050%=      5-min Rain = 0
KJU1 191610Z 32013G18KT 07/M03 A3028 RMK A01 T00681030  RH  050%=      5-min Rain = 0
KJU1 191611Z 31013KT 07/M03 A3028 RMK A01 T00681029  RH  050%=      5-min Rain = 0
KJU1 191612Z 32012G17KT 07/M03 A3028 RMK A01 T00691028  RH  050%=      5-min Rain = 0
KJU1 191613Z 32012KT 07/M03 A3028 RMK A01 T00691029  RH  049%=      5-min Rain = 0
KJU1 191614Z 34008G14KT 07/M03 A3028 RMK A01 T00701028  RH  050%=      5-min Rain = 0
KJU1 191615Z 34015G20KT 07/M03 A3028 RMK A01 T00721026  RH  050%=      5-min Rain = 0
KJU1 191616Z 33011G17KT 07/M03 A3028 RMK A01 T00731027  RH  049%=      5-min Rain = 0
KJU1 191617Z 32011G18KT 07/M03 A3028 RMK A01 T00731028  RH  049%=      5-min Rain = 0
KJU1 191618Z 34011KT 07/M03 A3028 RMK A01 T00731028  RH  049%=      5-min Rain = 0
KJU1 191619Z 34008KT 07/M03 A3028 RMK A01 T00731028  RH  049%=      5-min Rain = 0
KJU1 191620Z 34012G17KT 07/M03 A3028 RMK A01 T00731027  RH  049%=      5-min Rain = 0
KJU1 191621Z 33012KT 07/M03 A3028 RMK A01 T00731027  RH  049%=      5-min Rain = 0
KJU1 191622Z 32009G14KT 07/M03 A3028 RMK A01 T00741028  RH  049%=      5-min Rain = 0
KJU1 191623Z 33008G15KT 07/M03 A3028 RMK A01 T00741028  RH  049%=      5-min Rain = 0
KJU1 191624Z 32007KT 08/M03 A3029 RMK A01 T00761025  RH  049%=      5-min Rain = 0
KJU1 191625Z 33009KT 08/M02 A3029 RMK A01 T00771024  RH  049%=      5-min Rain = 0
KJU1 191626Z 31012G19KT 08/M03 A3029 RMK A01 T00781026  RH  048%=      5-min Rain = 0
KJU1 191627Z 32015G21KT 08/M03 A3029 RMK A01 T00771030  RH  047%=      5-min Rain = 0
KJU1 191628Z 33014G22KT 08/M03 A3029 RMK A01 T00761030  RH  047%=      5-min Rain = 0
KJU1 191629Z 33013G19KT 08/M03 A3029 RMK A01 T00751031  RH  047%=      5-min Rain = 0
KJU1 191630Z 33010KT 08/M03 A3029 RMK A01 T00751030  RH  047%=      5-min Rain = 0
KJU1 191631Z 32014KT 08/M03 A3029 RMK A01 T00771029  RH  047%=      5-min Rain = 0
KJU1 191632Z 34014KT 08/M03 A3029 RMK A01 T00761032  RH  046%=      5-min Rain = 0
KJU1 191633Z 33014G19KT 08/M03 A3029 RMK A01 T00751032  RH  046%=      5-min Rain = 0
KJU1 191634Z 33013G18KT 08/M03 A3029 RMK A01 T00751032  RH  046%=      5-min Rain = 0
KJU1 191635Z 33012KT 08/M03 A3029 RMK A01 T00751032  RH  046%=      5-min Rain = 0
KJU1 191636Z 32009KT 08/M03 A3029 RMK A01 T00761030  RH  047%=      5-min Rain = 0
KJU1 191637Z 33008G16KT 08/M03 A3029 RMK A01 T00781027  RH  047%=      5-min Rain = 0
KJU1 191638Z 33012G18KT 08/M03 A3029 RMK A01 T00801026  RH  047%=      5-min Rain = 0
KJU1 191639Z 33008KT 08/M03 A3029 RMK A01 T00801027  RH  047%=      5-min Rain = 0
KJU1 191640Z 33010G15KT 08/M03 A3029 RMK A01 T00811028  RH  046%=      5-min Rain = 0
KJU1 191641Z 33012G17KT 08/M03 A3029 RMK A01 T00801030  RH  046%=      5-min Rain = 0
KJU1 191642Z 33013G20KT 08/M03 A3029 RMK A01 T00811029  RH  046%=      5-min Rain = 0
KJU1 191643Z 32011G17KT 08/M03 A3029 RMK A01 T00821028  RH  046%=      5-min Rain = 0
KJU1 191644Z 31013KT 08/M03 A3029 RMK A01 T00821027  RH  046%=      5-min Rain = 0
KJU1 191645Z 33011G16KT 08/M03 A3029 RMK A01 T00831030  RH  045%=      5-min Rain = 0
KJU1 191646Z 33014G20KT 08/M03 A3029 RMK A01 T00831030  RH  045%=      5-min Rain = 0
KJU1 191647Z 34011G16KT 08/M03 A3029 RMK A01 T00821032  RH  044%=      5-min Rain = 0
KJU1 191648Z 34015G20KT 08/M03 A3029 RMK A01 T00811030  RH  045%=      5-min Rain = 0
KJU1 191649Z 32013G22KT 08/M03 A3029 RMK A01 T00821031  RH  045%=      5-min Rain = 0
KJU1 191650Z 32017KT 08/M03 A3029 RMK A01 T00821032  RH  044%=      5-min Rain = 0
KJU1 191651Z 32015G21KT 08/M03 A3029 RMK A01 T00811034  RH  044%=      5-min Rain = 0
KJU1 191652Z 32016KT 08/M04 A3029 RMK A01 T00801035  RH  044%=      5-min Rain = 0
KJU1 191653Z 32015G22KT 08/M04 A3029 RMK A01 T00801035  RH  044%=      5-min Rain = 0
KJU1 191654Z 31014KT 08/M03 A3029 RMK A01 T00791034  RH  044%=      5-min Rain = 0
KJU1 191655Z 32012G17KT 08/M03 A3029 RMK A01 T00801034  RH  044%=      5-min Rain = 0
KJU1 191656Z 34007KT 08/M03 A3029 RMK A01 T00811032  RH  045%=      5-min Rain = 0
KJU1 191657Z 34011G16KT 08/M03 A3029 RMK A01 T00841028  RH  045%=      5-min Rain = 0
KJU1 191658Z 34009KT 09/M03 A3029 RMK A01 T00861029  RH  044%=      5-min Rain = 0
KJU1 191659Z 33010G15KT 09/M03 A3029 RMK A01 T00871028  RH  044%=      5-min Rain = 0
KJU1 191700Z 33009G15KT 09/M03 A3029 RMK A01 T00871030  RH  044%=      5-min Rain = 0
KJU1 191701Z 33013KT 09/M03 A3029 RMK A01 T00871030  RH  043%=      5-min Rain = 0
KJU1 191702Z 32014KT 09/M03 A3029 RMK A01 T00861031  RH  043%=      5-min Rain = 0
KJU1 191703Z 34016KT 09/M03 A3029 RMK A01 T00861032  RH  043%=      5-min Rain = 0
KJU1 191704Z 34015KT 09/M03 A3029 RMK A01 T00851033  RH  043%=      5-min Rain = 0
KJU1 191705Z 34015G20KT 09/M04 A3029 RMK A01 T00851035  RH  043%=      5-min Rain = 0
KJU1 191706Z 34013KT 08/M03 A3029 RMK A01 T00841034  RH  043%=      5-min Rain = 0
KJU1 191707Z 34016KT 08/M03 A3029 RMK A01 T00841034  RH  043%=      5-min Rain = 0
KJU1 191708Z 34012G18KT 08/M03 A303 RMK A01 T00841034  RH  043%=      5-min Rain = 0
KJU1 191709Z 33014G19KT 09/M03 A303 RMK A01 T00861030  RH  044%=      5-min Rain = 0
KJU1 191710Z 33013G18KT 09/M03 A303 RMK A01 T00881031  RH  043%=      5-min Rain = 0
KJU1 191711Z 32014KT 09/M03 A303 RMK A01 T00871033  RH  042%=      5-min Rain = 0
KJU1 191712Z 33015G20KT 09/M03 A303 RMK A01 T00871033  RH  043%=      5-min Rain = 0
KJU1 191713Z 33013KT 09/M04 A303 RMK A01 T00861035  RH  042%=      5-min Rain = 0
KJU1 191714Z 33009KT 09/M04 A303 RMK A01 T00861035  RH  042%=      5-min Rain = 0
KJU1 191715Z 35011G16KT 09/M03 A303 RMK A01 T00881031  RH  043%=      5-min Rain = 0
KJU1 191716Z 35013G18KT 09/M03 A303 RMK A01 T00891031  RH  043%=      5-min Rain = 0
KJU1 191717Z 36014G19KT 09/M03 A303 RMK A01 T00891033  RH  042%=      5-min Rain = 0
KJU1 191718Z 35013KT 09/M03 A303 RMK A01 T00881033  RH  042%=      5-min Rain = 0
KJU1 191719Z 35011KT 09/M03 A303 RMK A01 T00881033  RH  042%=      5-min Rain = 0
KJU1 191720Z 34012KT 09/M03 A303 RMK A01 T00891032  RH  042%=      5-min Rain = 0
KJU1 191721Z 34012KT 09/M03 A303 RMK A01 T00891033  RH  042%=      5-min Rain = 0
KJU1 191722Z 34011G16KT 09/M03 A303 RMK A01 T00891033  RH  042%=      5-min Rain = 0
KJU1 191723Z 34011KT 09/M03 A303 RMK A01 T00901033  RH  042%=      5-min Rain = 0
KJU1 191724Z 34013KT 09/M03 A303 RMK A01 T00901033  RH  042%=      5-min Rain = 0
KJU1 191725Z 34011KT 09/M03 A303 RMK A01 T00891034  RH  041%=      5-min Rain = 0
KJU1 191726Z 32010G16KT 09/M03 A303 RMK A01 T00911028  RH  043%=      5-min Rain = 0
KJU1 191727Z 34010KT 09/M03 A303 RMK A01 T00941027  RH  043%=      5-min Rain = 0
KJU1 191728Z 35013G18KT 10/M03 A303 RMK A01 T00951028  RH  042%=      5-min Rain = 0
KJU1 191729Z 33013G22KT 09/M03 A303 RMK A01 T00941030  RH  041%=      5-min Rain = 0
KJU1 191730Z 33016G24KT 09/M03 A303 RMK A01 T00941032  RH  041%=      5-min Rain = 0
KJU1 191731Z 33014G20KT 09/M04 A303 RMK A01 T00921037  RH  040%=      5-min Rain = 0
KJU1 191732Z 32010KT 09/M04 A303 RMK A01 T00901036  RH  041%=      5-min Rain = 0
KJU1 191733Z 33011KT 09/M04 A303 RMK A01 T00901036  RH  041%=      5-min Rain = 0
KJU1 191734Z 33010G15KT 09/M04 A303 RMK A01 T00911036  RH  041%=      5-min Rain = 0
KJU1 191735Z 33012KT 09/M03 A303 RMK A01 T00921034  RH  041%=      5-min Rain = 0
KJU1 191736Z 34010KT 09/M04 A303 RMK A01 T00921036  RH  040%=      5-min Rain = 0
KJU1 191737Z 35012G18KT 09/M03 A303 RMK A01 T00931032  RH  041%=      5-min Rain = 0
KJU1 191738Z 34015G23KT 09/M04 A303 RMK A01 T00931035  RH  040%=      5-min Rain = 0
KJU1 191739Z 34018KT 09/M04 A303 RMK A01 T00921036  RH  040%=      5-min Rain = 0
KJU1 191740Z 33012G19KT 09/M04 A303 RMK A01 T00911037  RH  040%=      5-min Rain = 0
KJU1 191741Z 33012KT 09/M04 A303 RMK A01 T00911037  RH  041%=      5-min Rain = 0
KJU1 191742Z 33012KT 09/M04 A303 RMK A01 T00911037  RH  040%=      5-min Rain = 0
KJU1 191743Z 34015G22KT 09/M04 A303 RMK A01 T00921035  RH  041%=      5-min Rain = 0
KJU1 191744Z 34015KT 09/M04 A303 RMK A01 T00921036  RH  040%=      5-min Rain = 0
KJU1 191745Z 34015KT 09/M04 A303 RMK A01 T00921038  RH  040%=      5-min Rain = 0
KJU1 191746Z 35012G17KT 09/M04 A3029 RMK A01 T00911037  RH  040%=      5-min Rain = 0
KJU1 191747Z 35015KT 09/M04 A3029 RMK A01 T00921035  RH  041%=      5-min Rain = 0
KJU1 191748Z 35017G22KT 09/M04 A3029 RMK A01 T00921037  RH  040%=      5-min Rain = 0
KJU1 191749Z 34015KT 09/M04 A3029 RMK A01 T00921037  RH  040%=      5-min Rain = 0
KJU1 191750Z 34015G20KT 09/M04 A3029 RMK A01 T00921037  RH  040%=      5-min Rain = 0
KJU1 191751Z 35015KT 09/M04 A3029 RMK A01 T00921036  RH  040%=      5-min Rain = 0
KJU1 191752Z 35011KT 09/M03 A3029 RMK A01 T00931031  RH  041%=      5-min Rain = 0
KJU1 191753Z 34011KT 10/M03 A3029 RMK A01 T00961031  RH  041%=      5-min Rain = 0
KJU1 191754Z 33007KT 10/M03 A3029 RMK A01 T00971031  RH  041%=      5-min Rain = 0
KJU1 191755Z 34010KT 10/M03 A3029 RMK A01 T00971030  RH  041%=      5-min Rain = 0
KJU1 191756Z 34012G19KT 10/M03 A3029 RMK A01 T00981030  RH  041%=      5-min Rain = 0
KJU1 191757Z 34011G19KT 10/M03 A3029 RMK A01 T00981031  RH  040%=      5-min Rain = 0
KJU1 191758Z 32014G20KT 10/M03 A3029 RMK A01 T00971031  RH  040%=      5-min Rain = 0
KJU1 191759Z 32010G15KT 10/M03 A3029 RMK A01 T00971031  RH  040%=      5-min Rain = 0
KJU1 191800Z 30017KT 10/M03 A3029 RMK A01 T00981030  RH  040%=      5-min Rain = 0
KJU1 191801Z 31013G20KT 10/M03 A3028 RMK A01 T00971032  RH  040%=      5-min Rain = 0
KJU1 191802Z 32011G17KT 10/M03 A3029 RMK A01 T00961033  RH  040%=      5-min Rain = 0
KJU1 191803Z 33014G19KT 10/M03 A3029 RMK A01 T00971030  RH  041%=      5-min Rain = 0
KJU1 191804Z 33016G21KT 10/M03 A3029 RMK A01 T00981033  RH  040%=      5-min Rain = 0
KJU1 191805Z 34015G23KT 10/M04 A3028 RMK A01 T00971037  RH  039%=      5-min Rain = 0
KJU1 191806Z 33015G22KT 10/M04 A3028 RMK A01 T00951037  RH  039%=      5-min Rain = 0
KJU1 191807Z 33009G14KT 10/M04 A3028 RMK A01 T00951036  RH  039%=      5-min Rain = 0
KJU1 191808Z 32011G16KT 10/M03 A3028 RMK A01 T00981030  RH  041%=      5-min Rain = 0
KJU1 191809Z 34015KT 10/M03 A3028 RMK A01 T00991033  RH  039%=      5-min Rain = 0
KJU1 191810Z 33015G20KT 10/M03 A3028 RMK A01 T00991034  RH  039%=      5-min Rain = 0
KJU1 191811Z 32012G18KT 10/M04 A3028 RMK A01 T00971037  RH  039%=      5-min Rain = 0
KJU1 191812Z 34011G17KT 10/M04 A3028 RMK A01 T00971036  RH  039%=      5-min Rain = 0
KJU1 191813Z 34011G17KT 10/M03 A3028 RMK A01 T00991033  RH  039%=      5-min Rain = 0
KJU1 191814Z 35013KT 10/M03 A3028 RMK A01 T01011032  RH  039%=      5-min Rain = 0
KJU1 191815Z 34012G17KT 10/M03 A3028 RMK A01 T01001034  RH  039%=      5-min Rain = 0
KJU1 191816Z 34013G20KT 10/M04 A3028 RMK A01 T01001035  RH  039%=      5-min Rain = 0
KJU1 191817Z 34014G20KT 10/M03 A3028 RMK A01 T00991034  RH  039%=      5-min Rain = 0
KJU1 191818Z 34012G17KT 10/M03 A3028 RMK A01 T00991034  RH  039%=      5-min Rain = 0
KJU1 191819Z 33010KT 10/M03 A3028 RMK A01 T01001031  RH  040%=      5-min Rain = 0
KJU1 191820Z 34009KT 10/M03 A3028 RMK A01 T01011031  RH  039%=      5-min Rain = 0
KJU1 191821Z 33010KT 10/M03 A3028 RMK A01 T01031027  RH  040%=      5-min Rain = 0
KJU1 191822Z 32011KT 11/M03 A3028 RMK A01 T01051028  RH  039%=      5-min Rain = 0
KJU1 191823Z 34010G20KT 11/M03 A3028 RMK A01 T01051027  RH  040%=      5-min Rain = 0
KJU1 191824Z 34017G24KT 11/M03 A3028 RMK A01 T01071028  RH  039%=      5-min Rain = 0
KJU1 191825Z 34017KT 10/M03 A3028 RMK A01 T01041034  RH  038%=      5-min Rain = 0
KJU1 191826Z 34017G22KT 10/M04 A3028 RMK A01 T01011035  RH  038%=      5-min Rain = 0
KJU1 191827Z 33013G18KT 10/M03 A3028 RMK A01 T01001034  RH  039%=      5-min Rain = 0
KJU1 191828Z 31011G17KT 10/M03 A3028 RMK A01 T01001030  RH  040%=      5-min Rain = 0
KJU1 191829Z 30009KT 10/M03 A3028 RMK A01 T01021031  RH  039%=      5-min Rain = 0
KJU1 191830Z 31007KT 10/M02 A3028 RMK A01 T01031021  RH  042%=      5-min Rain = 0
KJU1 191831Z 32008KT 11/M02 A3028 RMK A01 T01081019  RH  041%=      5-min Rain = 0
KJU1 191832Z 33014KT 11/M02 A3028 RMK A01 T01091023  RH  040%=      5-min Rain = 0
KJU1 191833Z 32010KT 11/M03 A3028 RMK A01 T01061030  RH  038%=      5-min Rain = 0
KJU1 191834Z 32010G17KT 11/M03 A3028 RMK A01 T01051026  RH  040%=      5-min Rain = 0
KJU1 191835Z 33013G22KT 11/M03 A3028 RMK A01 T01061028  RH  039%=      5-min Rain = 0
KJU1 191836Z 34015G20KT 11/M03 A3028 RMK A01 T01061028  RH  039%=      5-min Rain = 0
KJU1 191837Z 33011G16KT 11/M03 A3028 RMK A01 T01061031  RH  038%=      5-min Rain = 0
KJU1 191838Z 33014KT 11/M03 A3028 RMK A01 T01061031  RH  038%=      5-min Rain = 0
KJU1 191839Z 34015G20KT 10/M03 A3028 RMK A01 T01041033  RH  038%=      5-min Rain = 0
KJU1 191840Z 34013G21KT 10/M03 A3028 RMK A01 T01031033  RH  038%=      5-min Rain = 0
KJU1 191841Z 33010G17KT 10/M03 A3028 RMK A01 T01031030  RH  039%=      5-min Rain = 0
KJU1 191842Z 33009G16KT 11/M03 A3028 RMK A01 T01051026  RH  040%=      5-min Rain = 0
KJU1 191843Z 31012KT 11/M03 A3028 RMK A01 T01061026  RH  039%=      5-min Rain = 0
KJU1 191844Z 31015KT 11/M03 A3028 RMK A01 T01061029  RH  039%=      5-min Rain = 0
KJU1 191845Z 32015G25KT 11/M03 A3028 RMK A01 T01061028  RH  039%=      5-min Rain = 0
KJU1 191846Z 31013G18KT 11/M03 A3028 RMK A01 T01061032  RH  038%=      5-min Rain = 0
KJU1 191847Z 32008KT 11/M03 A3028 RMK A01 T01061028  RH  039%=      5-min Rain = 0
KJU1 191848Z 33012KT 11/M03 A3028 RMK A01 T01091026  RH  039%=      5-min Rain = 0
KJU1 191849Z 34016G21KT 11/M03 A3028 RMK A01 T01101029  RH  038%=      5-min Rain = 0
KJU1 191850Z 33018G25KT 11/M03 A3027 RMK A01 T01091031  RH  038%=      5-min Rain = 0
KJU1 191851Z 33018G23KT 11/M03 A3027 RMK A01 T01081033  RH  037%=      5-min Rain = 0
KJU1 191852Z 34015G21KT 11/M04 A3027 RMK A01 T01051036  RH  037%=      5-min Rain = 0
KJU1 191853Z 33013G18KT 10/M04 A3027 RMK A01 T01041037  RH  037%=      5-min Rain = 0
KJU1 191854Z 34014KT 10/M03 A3027 RMK A01 T01041034  RH  038%=      5-min Rain = 0
KJU1 191855Z 34015KT 11/M03 A3027 RMK A01 T01051032  RH  038%=      5-min Rain = 0
KJU1 191856Z 34013G18KT 11/M03 A3027 RMK A01 T01051032  RH  038%=      5-min Rain = 0
KJU1 191857Z 33013KT 11/M03 A3027 RMK A01 T01061032  RH  038%=      5-min Rain = 0
KJU1 191858Z 33010KT 11/M03 A3027 RMK A01 T01061030  RH  038%=      5-min Rain = 0
KJU1 191859Z 34013G19KT 11/M03 A3027 RMK A01 T01081026  RH  039%=      5-min Rain = 0
KJU1 191900Z 33010G15KT 11/M02 A3027 RMK A01 T01111024  RH  039%=      5-min Rain = 0
KJU1 191901Z 33011G17KT 11/M02 A3027 RMK A01 T01131022  RH  039%=      5-min Rain = 0
KJU1 191902Z 32010KT 12/M02 A3026 RMK A01 T01151023  RH  038%=      5-min Rain = 0
KJU1 191903Z 31013G19KT 11/M02 A3027 RMK A01 T01141022  RH  038%=      5-min Rain = 0
KJU1 191904Z 33015G21KT 12/M03 A3026 RMK A01 T01151026  RH  037%=      5-min Rain = 0
KJU1 191905Z 33014G20KT 11/M03 A3027 RMK A01 T01131029  RH  037%=      5-min Rain = 0
KJU1 191906Z 34014KT 11/M03 A3026 RMK A01 T01131029  RH  037%=      5-min Rain = 0
KJU1 191907Z 34016G24KT 11/M03 A3026 RMK A01 T01121031  RH  037%=      5-min Rain = 0
KJU1 191908Z 33014G19KT 11/M03 A3026 RMK A01 T01111033  RH  036%=      5-min Rain = 0
KJU1 191909Z 30010KT 11/M03 A3026 RMK A01 T01101032  RH  037%=      5-min Rain = 0
KJU1 191910Z 31007KT 11/M03 A3026 RMK A01 T01111027  RH  038%=      5-min Rain = 0
KJU1 191911Z 32011G17KT 12/M02 A3027 RMK A01 T01151020  RH  039%=      5-min Rain = 0
KJU1 191912Z 32012G19KT 12/M03 A3026 RMK A01 T01171025  RH  037%=      5-min Rain = 0
KJU1 191913Z 32014G21KT 12/M03 A3026 RMK A01 T01151029  RH  036%=      5-min Rain = 0
KJU1 191914Z 31017KT 11/M03 A3026 RMK A01 T01141030  RH  036%=      5-min Rain = 0
KJU1 191915Z 32015G21KT 11/M03 A3026 RMK A01 T01131033  RH  036%=      5-min Rain = 0
KJU1 191916Z 33014KT 11/M03 A3026 RMK A01 T01121031  RH  036%=      5-min Rain = 0
KJU1 191917Z 34011G17KT 11/M03 A3026 RMK A01 T01131029  RH  037%=      5-min Rain = 0
KJU1 191918Z 35014G19KT 11/M03 A3026 RMK A01 T01141030  RH  036%=      5-min Rain = 0
KJU1 191919Z 35014G20KT 11/M03 A3026 RMK A01 T01141030  RH  036%=      5-min Rain = 0
KJU1 191920Z 34017G22KT 11/M03 A3026 RMK A01 T01141030  RH  036%=      5-min Rain = 0
KJU1 191921Z 34014G21KT 11/M03 A3026 RMK A01 T01141031  RH  036%=      5-min Rain = 0
KJU1 191922Z 34012G18KT 11/M03 A3026 RMK A01 T01141028  RH  037%=      5-min Rain = 0
KJU1 191923Z 33015KT 12/M03 A3026 RMK A01 T01151029  RH  036%=      5-min Rain = 0
KJU1 191924Z 31012KT 12/M03 A3026 RMK A01 T01151030  RH  036%=      5-min Rain = 0
KJU1 191925Z 31011G20KT 12/M02 A3026 RMK A01 T01171024  RH  037%=      5-min Rain = 0
KJU1 191926Z 32011G17KT 12/M02 A3026 RMK A01 T01191024  RH  037%=      5-min Rain = 0
KJU1 191927Z 32015G20KT 12/M03 A3026 RMK A01 T01191025  RH  036%=      5-min Rain = 0
KJU1 191928Z 33014G22KT 12/M03 A3026 RMK A01 T01191027  RH  036%=      5-min Rain = 0
KJU1 191929Z 32011G17KT 12/M03 A3025 RMK A01 T01181029  RH  036%=      5-min Rain = 0
KJU1 191930Z 33014G21KT 12/M03 A3025 RMK A01 T01181028  RH  036%=      5-min Rain = 0
KJU1 191931Z 32012KT 12/M03 A3025 RMK A01 T01191029  RH  036%=      5-min Rain = 0
KJU1 191932Z 31011G17KT 12/M03 A3025 RMK A01 T01191026  RH  036%=      5-min Rain = 0
KJU1 191933Z 33010G16KT 12/M03 A3025 RMK A01 T01191025  RH  036%=      5-min Rain = 0
KJU1 191934Z 34014G23KT 12/M03 A3025 RMK A01 T01191030  RH  035%=      5-min Rain = 0
KJU1 191935Z 35014KT 12/M03 A3025 RMK A01 T01191029  RH  036%=      5-min Rain = 0
KJU1 191936Z 33017KT 12/M03 A3025 RMK A01 T01191029  RH  035%=      5-min Rain = 0
KJU1 191937Z 33011G18KT 12/M03 A3025 RMK A01 T01191030  RH  035%=      5-min Rain = 0
KJU1 191938Z 34015G22KT 12/M03 A3025 RMK A01 T01181029  RH  036%=      5-min Rain = 0
KJU1 191939Z 33013KT 12/M03 A3025 RMK A01 T01191028  RH  036%=      5-min Rain = 0
KJU1 191940Z 33008G14KT 12/M03 A3025 RMK A01 T01191030  RH  035%=      5-min Rain = 0
KJU1 191941Z 35012G20KT 12/M03 A3025 RMK A01 T01191027  RH  036%=      5-min Rain = 0
KJU1 191942Z 34013G19KT 12/M03 A3025 RMK A01 T01201029  RH  035%=      5-min Rain = 0
KJU1 191943Z 34014KT 12/M03 A3025 RMK A01 T01191030  RH  035%=      5-min Rain = 0
KJU1 191944Z 34012KT 12/M03 A3025 RMK A01 T01201028  RH  036%=      5-min Rain = 0
KJU1 191945Z 34014G21KT 12/M03 A3024 RMK A01 T01211027  RH  036%=      5-min Rain = 0
KJU1 191946Z 32010KT 12/M03 A3024 RMK A01 T01221026  RH  036%=      5-min Rain = 0
KJU1 191947Z 34010G16KT 12/M03 A3024 RMK A01 T01221028  RH  035%=      5-min Rain = 0
KJU1 191948Z 34013G20KT 12/M03 A3024 RMK A01 T01221027  RH  035%=      5-min Rain = 0
KJU1 191949Z 33013G18KT 12/M03 A3024 RMK A01 T01231026  RH  035%=      5-min Rain = 0
KJU1 191950Z 32007KT 12/M03 A3024 RMK A01 T01221027  RH  035%=      5-min Rain = 0
KJU1 191951Z 33010G21KT 12/M02 A3024 RMK A01 T01231024  RH  036%=      5-min Rain = 0
KJU1 191952Z 32013KT 12/M03 A3024 RMK A01 T01241027  RH  035%=      5-min Rain = 0
KJU1 191953Z 31014G22KT 12/M03 A3024 RMK A01 T01231029  RH  034%=      5-min Rain = 0
KJU1 191954Z 32012KT 12/M02 A3024 RMK A01 T01231024  RH  036%=      5-min Rain = 0
KJU1 191955Z 32012G18KT 12/M03 A3024 RMK A01 T01231028  RH  035%=      5-min Rain = 0
KJU1 191956Z 32016G26KT 12/M03 A3024 RMK A01 T01231029  RH  034%=      5-min Rain = 0
KJU1 191957Z 33014G25KT 12/M03 A3024 RMK A01 T01221031  RH  034%=      5-min Rain = 0
KJU1 191958Z 33017G22KT 12/M03 A3023 RMK A01 T01221031  RH  034%=      5-min Rain = 0
KJU1 191959Z 34019G25KT 12/M03 A3023 RMK A01 T01221029  RH  035%=      5-min Rain = 0
KJU1 192000Z 33014KT 12/M03 A3024 RMK A01 T01231029  RH  035%=      5-min Rain = 0
KJU1 192001Z 34014G20KT 12/M03 A3023 RMK A01 T01231031  RH  034%=      5-min Rain = 0
KJU1 192002Z 34013G18KT 12/M03 A3023 RMK A01 T01221031  RH  034%=      5-min Rain = 0
KJU1 192003Z 33009KT 12/M03 A3023 RMK A01 T01231025  RH  036%=      5-min Rain = 0
KJU1 192004Z 34011KT 13/M02 A3023 RMK A01 T01261024  RH  035%=      5-min Rain = 0
KJU1 192005Z 33013KT 13/M03 A3023 RMK A01 T01261028  RH  034%=      5-min Rain = 0
KJU1 192006Z 33013G19KT 13/M03 A3023 RMK A01 T01251027  RH  035%=      5-min Rain = 0
KJU1 192007Z 33013KT 12/M03 A3023 RMK A01 T01241031  RH  034%=      5-min Rain = 0
KJU1 192008Z 34011G16KT 12/M03 A3023 RMK A01 T01231030  RH  034%=      5-min Rain = 0
KJU1 192009Z 33011G20KT 13/M03 A3023 RMK A01 T01251027  RH  035%=      5-min Rain = 0
KJU1 192010Z 33014G21KT 13/M03 A3023 RMK A01 T01271025  RH  035%=      5-min Rain = 0
KJU1 192011Z 33015KT 13/M03 A3023 RMK A01 T01271027  RH  034%=      5-min Rain = 0
KJU1 192012Z 33015G20KT 13/M03 A3023 RMK A01 T01271029  RH  034%=      5-min Rain = 0
KJU1 192013Z 33012G18KT 13/M03 A3023 RMK A01 T01251031  RH  034%=      5-min Rain = 0
KJU1 192014Z 33009KT 13/M03 A3023 RMK A01 T01261027  RH  035%=      5-min Rain = 0
KJU1 192015Z 34009KT 13/M03 A3023 RMK A01 T01281025  RH  035%=      5-min Rain = 0
KJU1 192016Z 33015KT 13/M02 A3023 RMK A01 T01301023  RH  035%=      5-min Rain = 0
KJU1 192017Z 32013G18KT 13/M02 A3023 RMK A01 T01301024  RH  034%=      5-min Rain = 0
KJU1 192018Z 34010G15KT 13/M02 A3022 RMK A01 T01291024  RH  034%=      5-min Rain = 0
KJU1 192019Z 33012KT 13/M02 A3023 RMK A01 T01291024  RH  034%=      5-min Rain = 0
KJU1 192020Z 34009G14KT 13/M03 A3022 RMK A01 T01291025  RH  034%=      5-min Rain = 0
KJU1 192021Z 34010KT 13/M02 A3022 RMK A01 T01301022  RH  035%=      5-min Rain = 0
KJU1 192022Z 34010KT 13/M03 A3022 RMK A01 T01311025  RH  034%=      5-min Rain = 0
KJU1 192023Z 33010KT 13/M02 A3022 RMK A01 T01311023  RH  034%=      5-min Rain = 0
KJU1 192024Z 33007G12KT 13/M02 A3023 RMK A01 T01331020  RH  035%=      5-min Rain = 0
KJU1 192025Z 35014G19KT 14/M02 A3023 RMK A01 T01351021  RH  034%=      5-min Rain = 0
KJU1 192026Z 34013G18KT 13/M02 A3023 RMK A01 T01331024  RH  033%=      5-min Rain = 0
KJU1 192027Z 33014G21KT 13/M03 A3023 RMK A01 T01331025  RH  034%=      5-min Rain = 0
KJU1 192028Z 33010G17KT 13/M03 A3023 RMK A01 T01311028  RH  033%=      5-min Rain = 0
KJU1 192029Z 34014G22KT 13/M03 A3023 RMK A01 T01311027  RH  033%=      5-min Rain = 0
KJU1 192030Z 34018G27KT 13/M03 A3023 RMK A01 T01311028  RH  033%=      5-min Rain = 0
KJU1 192031Z 34014G19KT 13/M03 A3023 RMK A01 T01311028  RH  033%=      5-min Rain = 0
KJU1 192032Z 34017G23KT 13/M03 A3023 RMK A01 T01311029  RH  033%=      5-min Rain = 0
KJU1 192033Z 34015G23KT 13/M03 A3023 RMK A01 T01301030  RH  033%=      5-min Rain = 0
KJU1 192034Z 33015G22KT 13/M03 A3022 RMK A01 T01291031  RH  033%=      5-min Rain = 0
KJU1 192035Z 33012G20KT 13/M03 A3022 RMK A01 T01291029  RH  033%=      5-min Rain = 0
KJU1 192036Z 32016G23KT 13/M03 A3022 RMK A01 T01311030  RH  033%=      5-min Rain = 0
KJU1 192037Z 33011G16KT 13/M03 A3022 RMK A01 T01301029  RH  033%=      5-min Rain = 0
KJU1 192038Z 33016G23KT 13/M03 A3023 RMK A01 T01311029  RH  033%=      5-min Rain = 0
KJU1 192039Z 34017KT 13/M03 A3022 RMK A01 T01311030  RH  033%=      5-min Rain = 0
KJU1 192040Z 33014G21KT 13/M03 A3023 RMK A01 T01311031  RH  032%=      5-min Rain = 0
KJU1 192041Z 34017G23KT 13/M03 A3023 RMK A01 T01321028  RH  033%=      5-min Rain = 0
KJU1 192042Z 33017G23KT 13/M03 A3023 RMK A01 T01321030  RH  032%=      5-min Rain = 0
KJU1 192043Z 34017G23KT 13/M03 A3023 RMK A01 T01311030  RH  033%=      5-min Rain = 0
KJU1 192044Z 33018G25KT 13/M03 A3023 RMK A01 T01311030  RH  033%=      5-min Rain = 0
KJU1 192045Z 35019G26KT 13/M03 A3023 RMK A01 T01301034  RH  032%=      5-min Rain = 0
KJU1 192046Z 34016G23KT 13/M03 A3023 RMK A01 T01291033  RH  032%=      5-min Rain = 0
KJU1 192047Z 34011G19KT 13/M03 A3022 RMK A01 T01291032  RH  033%=      5-min Rain = 0
KJU1 192048Z 31011G18KT 13/M03 A3023 RMK A01 T01301027  RH  033%=      5-min Rain = 0
KJU1 192049Z 32020G26KT 13/M03 A3023 RMK A01 T01321029  RH  033%=      5-min Rain = 0
KJU1 192050Z 32013KT 13/M03 A3023 RMK A01 T01321029  RH  032%=      5-min Rain = 0
KJU1 192051Z 32010G15KT 13/M03 A3022 RMK A01 T01331028  RH  032%=      5-min Rain = 0
KJU1 192052Z 33012G18KT 13/M03 A3023 RMK A01 T01341027  RH  032%=      5-min Rain = 0
KJU1 192053Z 32013G22KT 14/M03 A3023 RMK A01 T01351028  RH  032%=      5-min Rain = 0
KJU1 192054Z 33018G25KT 13/M03 A3023 RMK A01 T01341031  RH  031%=      5-min Rain = 0
KJU1 192055Z 33017G22KT 13/M03 A3023 RMK A01 T01321034  RH  031%=      5-min Rain = 0
KJU1 192056Z 33016G22KT 13/M03 A3023 RMK A01 T01321033  RH  032%=      5-min Rain = 0
KJU1 192057Z 33019G25KT 13/M03 A3023 RMK A01 T01321034  RH  031%=      5-min Rain = 0
KJU1 192058Z 33017G23KT 13/M03 A3023 RMK A01 T01311034  RH  031%=      5-min Rain = 0
KJU1 192059Z 35018G24KT 13/M03 A3023 RMK A01 T01311034  RH  031%=      5-min Rain = 0
KJU1 192100Z 34015KT 13/M03 A3023 RMK A01 T01311034  RH  032%=      5-min Rain = 0
KJU1 192101Z 35015KT 13/M03 A3023 RMK A01 T01311032  RH  032%=      5-min Rain = 0
KJU1 192102Z 35015G21KT 13/M03 A3023 RMK A01 T01311033  RH  032%=      5-min Rain = 0
KJU1 192103Z 35014G19KT 13/M03 A3023 RMK A01 T01311031  RH  032%=      5-min Rain = 0
KJU1 192104Z 34011KT 13/M03 A3023 RMK A01 T01321028  RH  033%=      5-min Rain = 0
KJU1 192105Z 34011KT 13/M03 A3023 RMK A01 T01341026  RH  033%=      5-min Rain = 0
KJU1 192106Z 34012G17KT 13/M03 A3023 RMK A01 T01341028  RH  032%=      5-min Rain = 0
KJU1 192107Z 34010G16KT 13/M03 A3023 RMK A01 T01341027  RH  033%=      5-min Rain = 0
KJU1 192108Z 32009G14KT 14/M03 A3023 RMK A01 T01351027  RH  032%=      5-min Rain = 0
KJU1 192109Z 33011G16KT 14/M03 A3023 RMK A01 T01351026  RH  033%=      5-min Rain = 0
KJU1 192110Z 33011G16KT 14/M03 A3023 RMK A01 T01361027  RH  032%=      5-min Rain = 0
KJU1 192111Z 34013G18KT 14/M03 A3023 RMK A01 T01361027  RH  032%=      5-min Rain = 0
KJU1 192112Z 34014G20KT 14/M03 A3023 RMK A01 T01361028  RH  032%=      5-min Rain = 0
KJU1 192113Z 33014G22KT 14/M03 A3023 RMK A01 T01361030  RH  032%=      5-min Rain = 0
KJU1 192114Z 33010KT 14/M03 A3024 RMK A01 T01351029  RH  032%=      5-min Rain = 0
KJU1 192115Z 34011KT 14/M03 A3024 RMK A01 T01361026  RH  033%=      5-min Rain = 0
KJU1 192116Z 35009KT 14/M02 A3023 RMK A01 T01371023  RH  033%=      5-min Rain = 0
KJU1 192117Z 34010G15KT 14/M02 A3024 RMK A01 T01381024  RH  032%=      5-min Rain = 0
KJU1 192118Z 34008KT 14/M03 A3024 RMK A01 T01381025  RH  032%=      5-min Rain = 0
KJU1 192119Z 35011G16KT 14/M03 A3024 RMK A01 T01381025  RH  032%=      5-min Rain = 0
KJU1 192120Z 34014G19KT 14/M03 A3024 RMK A01 T01381028  RH  032%=      5-min Rain = 0
KJU1 192121Z 33014G20KT 14/M03 A3024 RMK A01 T01361028  RH  032%=      5-min Rain = 0
KJU1 192122Z 36017G25KT 14/M03 A3024 RMK A01 T01361031  RH  031%=      5-min Rain = 0
KJU1 192123Z 35017G22KT 14/M03 A3024 RMK A01 T01351031  RH  031%=      5-min Rain = 0
KJU1 192124Z 35014G19KT 13/M03 A3024 RMK A01 T01341033  RH  031%=      5-min Rain = 0
KJU1 192125Z 34012KT 13/M03 A3024 RMK A01 T01341030  RH  032%=      5-min Rain = 0
KJU1 192126Z 35013G18KT 14/M03 A3024 RMK A01 T01351029  RH  032%=      5-min Rain = 0
KJU1 192127Z 34013KT 14/M03 A3024 RMK A01 T01361031  RH  031%=      5-min Rain = 0
KJU1 192128Z 35013KT 14/M03 A3024 RMK A01 T01351032  RH  031%=      5-min Rain = 0
KJU1 192129Z 35016G23KT 14/M03 A3024 RMK A01 T01351032  RH  031%=      5-min Rain = 0
KJU1 192130Z 35014G20KT 13/M03 A3024 RMK A01 T01341032  RH  031%=      5-min Rain = 0
KJU1 192131Z 34017G22KT 13/M03 A3024 RMK A01 T01341032  RH  031%=      5-min Rain = 0
KJU1 192132Z 34015KT 13/M03 A3024 RMK A01 T01331032  RH  032%=      5-min Rain = 0
KJU1 192133Z 35015KT 13/M03 A3024 RMK A01 T01331032  RH  032%=      5-min Rain = 0
KJU1 192134Z 34011G16KT 13/M03 A3024 RMK A01 T01331031  RH  032%=      5-min Rain = 0
KJU1 192135Z 34012G18KT 13/M03 A3024 RMK A01 T01331030  RH  032%=      5-min Rain = 0
KJU1 192136Z 34011KT 14/M03 A3024 RMK A01 T01351027  RH  032%=      5-min Rain = 0
KJU1 192137Z 35016G22KT 14/M03 A3024 RMK A01 T01351029  RH  032%=      5-min Rain = 0
KJU1 192138Z 34016G24KT 14/M03 A3024 RMK A01 T01351032  RH  031%=      5-min Rain = 0
KJU1 192139Z 35013G18KT 14/M03 A3024 RMK A01 T01351031  RH  032%=      5-min Rain = 0
KJU1 192140Z 35015KT 14/M03 A3024 RMK A01 T01351032  RH  031%=      5-min Rain = 0
KJU1 192141Z 00015G20KT 14/M03 A3024 RMK A01 T01351033  RH  031%=      5-min Rain = 0
KJU1 192142Z 34012KT 13/M03 A3024 RMK A01 T01341032  RH  031%=      5-min Rain = 0
KJU1 192143Z 34012G20KT 13/M03 A3024 RMK A01 T01341029  RH  032%=      5-min Rain = 0
KJU1 192144Z 34014G21KT 14/M03 A3024 RMK A01 T01351031  RH  031%=      5-min Rain = 0
KJU1 192145Z 34014G19KT 14/M03 A3024 RMK A01 T01351032  RH  031%=      5-min Rain = 0
KJU1 192146Z 34017G25KT 14/M03 A3024 RMK A01 T01351033  RH  031%=      5-min Rain = 0
KJU1 192147Z 34017G23KT 13/M03 A3024 RMK A01 T01341034  RH  031%=      5-min Rain = 0
KJU1 192148Z 34019G26KT 13/M04 A3024 RMK A01 T01341035  RH  031%=      5-min Rain = 0
KJU1 192149Z 35014G21KT 13/M03 A3024 RMK A01 T01341034  RH  031%=      5-min Rain = 0
KJU1 192150Z 34012KT 13/M03 A3024 RMK A01 T01341033  RH  031%=      5-min Rain = 0
KJU1 192151Z 34013G19KT 14/M03 A3023 RMK A01 T01351033  RH  031%=      5-min Rain = 0
KJU1 192152Z 35016G22KT 14/M03 A3024 RMK A01 T01351033  RH  031%=      5-min Rain = 0
KJU1 192153Z 34012KT 14/M03 A3023 RMK A01 T01351033  RH  031%=      5-min Rain = 0
KJU1 192154Z 35011KT 14/M03 A3023 RMK A01 T01351032  RH  031%=      5-min Rain = 0
KJU1 192155Z 34012G19KT 14/M03 A3024 RMK A01 T01351032  RH  031%=      5-min Rain = 0
KJU1 192156Z 34016G22KT 14/M03 A3024 RMK A01 T01351030  RH  031%=      5-min Rain = 0
KJU1 192157Z 34016G21KT 14/M03 A3024 RMK A01 T01361032  RH  031%=      5-min Rain = 0
KJU1 192158Z 34011G16KT 14/M03 A3023 RMK A01 T01351032  RH  031%=      5-min Rain = 0
KJU1 192159Z 34012KT 14/M03 A3024 RMK A01 T01361030  RH  032%=      5-min Rain = 0
KJU1 192200Z 35013G18KT 14/M03 A3024 RMK A01 T01361030  RH  032%=      5-min Rain = 0
KJU1 192201Z 35012KT 14/M03 A3023 RMK A01 T01361032  RH  031%=      5-min Rain = 0
KJU1 192202Z 34009G14KT 14/M03 A3023 RMK A01 T01361030  RH  032%=      5-min Rain = 0
KJU1 192203Z 34009KT 14/M03 A3023 RMK A01 T01371027  RH  032%=      5-min Rain = 0
KJU1 192204Z 33006KT 14/M03 A3023 RMK A01 T01381025  RH  032%=      5-min Rain = 0
KJU1 192205Z 36010G15KT 14/M02 A3023 RMK A01 T01391024  RH  032%=      5-min Rain = 0
KJU1 192206Z 35014G19KT 14/M03 A3023 RMK A01 T01391028  RH  031%=      5-min Rain = 0
KJU1 192207Z 35013G19KT 14/M03 A3023 RMK A01 T01381030  RH  031%=      5-min Rain = 0
KJU1 192208Z 35012KT 14/M03 A3023 RMK A01 T01371032  RH  031%=      5-min Rain = 0
KJU1 192209Z 00014G19KT 14/M03 A3023 RMK A01 T01361029  RH  032%=      5-min Rain = 0
KJU1 192210Z 36014KT 14/M03 A3024 RMK A01 T01371029  RH  032%=      5-min Rain = 0
KJU1 192211Z 35014G21KT 14/M03 A3024 RMK A01 T01361030  RH  032%=      5-min Rain = 0
KJU1 192212Z 33011G17KT 14/M03 A3024 RMK A01 T01361032  RH  031%=      5-min Rain = 0
KJU1 192213Z 32015G20KT 14/M03 A3024 RMK A01 T01371029  RH  031%=      5-min Rain = 0
KJU1 192214Z 34012KT 14/M03 A3024 RMK A01 T01381033  RH  030%=      5-min Rain = 0
KJU1 192215Z 34010KT 14/M03 A3024 RMK A01 T01381033  RH  030%=      5-min Rain = 0
KJU1 192216Z 34012G18KT 14/M03 A3024 RMK A01 T01381030  RH  031%=      5-min Rain = 0
KJU1 192217Z 34015G20KT 14/M03 A3024 RMK A01 T01391032  RH  030%=      5-min Rain = 0
KJU1 192218Z 34011G16KT 14/M03 A3024 RMK A01 T01381034  RH  030%=      5-min Rain = 0
KJU1 192219Z 34016G22KT 14/M03 A3024 RMK A01 T01371033  RH  031%=      5-min Rain = 0
KJU1 192220Z 33015G20KT 14/M04 A3024 RMK A01 T01361036  RH  030%=      5-min Rain = 0
KJU1 192221Z 33014G20KT 14/M04 A3024 RMK A01 T01351036  RH  030%=      5-min Rain = 0
KJU1 192222Z 34014KT 14/M04 A3023 RMK A01 T01351036  RH  030%=      5-min Rain = 0
KJU1 192223Z 33010G15KT 14/M04 A3023 RMK A01 T01351035  RH  031%=      5-min Rain = 0
KJU1 192224Z 33011KT 14/M03 A3023 RMK A01 T01351032  RH  031%=      5-min Rain = 0
KJU1 192225Z 35010KT 14/M03 A3024 RMK A01 T01361031  RH  031%=      5-min Rain = 0
KJU1 192226Z 35012KT 14/M03 A3024 RMK A01 T01361031  RH  031%=      5-min Rain = 0
KJU1 192227Z 34013G18KT 14/M03 A3024 RMK A01 T01361032  RH  031%=      5-min Rain = 0
KJU1 192228Z 35013G18KT 14/M03 A3024 RMK A01 T01361031  RH  031%=      5-min Rain = 0
KJU1 192229Z 35013KT 14/M03 A3024 RMK A01 T01361031  RH  031%=      5-min Rain = 0
KJU1 192230Z 34013G18KT 14/M03 A3024 RMK A01 T01361031  RH  031%=      5-min Rain = 0
KJU1 192231Z 35012G17KT 14/M03 A3024 RMK A01 T01361030  RH  032%=      5-min Rain = 0
KJU1 192232Z 35012KT 14/M03 A3024 RMK A01 T01361029  RH  032%=      5-min Rain = 0
KJU1 192233Z 35012KT 14/M03 A3024 RMK A01 T01361030  RH  032%=      5-min Rain = 0
KJU1 192234Z 00014KT 14/M03 A3024 RMK A01 T01361031  RH  031%=      5-min Rain = 0
KJU1 192235Z 36009KT 14/M03 A3024 RMK A01 T01351031  RH  031%=      5-min Rain = 0
KJU1 192236Z 33010KT 14/M03 A3024 RMK A01 T01351029  RH  032%=      5-min Rain = 0
KJU1 192237Z 33013KT 14/M03 A3024 RMK A01 T01361030  RH  032%=      5-min Rain = 0
KJU1 192238Z 33009KT 14/M03 A3024 RMK A01 T01361031  RH  031%=      5-min Rain = 0
KJU1 192239Z 35006KT 14/M03 A3024 RMK A01 T01361030  RH  032%=      5-min Rain = 0
KJU1 192240Z 34007G12KT 14/M03 A3024 RMK A01 T01361027  RH  032%=      5-min Rain = 0
KJU1 192241Z 35011G16KT 14/M03 A3024 RMK A01 T01371025  RH  032%=      5-min Rain = 0
KJU1 192242Z 34013KT 14/M03 A3024 RMK A01 T01371027  RH  032%=      5-min Rain = 0
KJU1 192243Z 34014KT 14/M03 A3024 RMK A01 T01371028  RH  032%=      5-min Rain = 0
KJU1 192244Z 35012KT 14/M03 A3023 RMK A01 T01361029  RH  032%=      5-min Rain = 0
KJU1 192245Z 34011KT 14/M03 A3023 RMK A01 T01361029  RH  032%=      5-min Rain = 0
KJU1 192246Z 34010KT 14/M03 A3024 RMK A01 T01361029  RH  032%=      5-min Rain = 0
KJU1 192247Z 35009KT 14/M03 A3024 RMK A01 T01361029  RH  032%=      5-min Rain = 0
KJU1 192248Z 34010KT 14/M03 A3024 RMK A01 T01361030  RH  031%=      5-min Rain = 0
KJU1 192249Z 35012G18KT 14/M03 A3024 RMK A01 T01361030  RH  031%=      5-min Rain = 0
KJU1 192250Z 34011KT 14/M03 A3024 RMK A01 T01361032  RH  031%=      5-min Rain = 0
KJU1 192251Z 35011KT 14/M03 A3024 RMK A01 T01361031  RH  031%=      5-min Rain = 0
KJU1 192252Z 34011KT 14/M03 A3024 RMK A01 T01361031  RH  031%=      5-min Rain = 0
KJU1 192253Z 34015KT 14/M03 A3024 RMK A01 T01351032  RH  031%=      5-min Rain = 0
KJU1 192254Z 34012KT 14/M03 A3024 RMK A01 T01351032  RH  031%=      5-min Rain = 0
KJU1 192255Z 34012KT 13/M03 A3024 RMK A01 T01341031  RH  031%=      5-min Rain = 0
KJU1 192256Z 34009KT 14/M03 A3024 RMK A01 T01351031  RH  032%=      5-min Rain = 0
KJU1 192257Z 34009KT 14/M03 A3024 RMK A01 T01351029  RH  032%=      5-min Rain = 0
KJU1 192258Z 35009G14KT 14/M03 A3024 RMK A01 T01351028  RH  032%=      5-min Rain = 0
KJU1 192259Z 34010KT 13/M03 A3024 RMK A01 T01341028  RH  032%=      5-min Rain = 0
KJU1 192300Z 35012KT 14/M03 A3024 RMK A01 T01351029  RH  032%=      5-min Rain = 0
KJU1 192301Z 34016G23KT 13/M03 A3024 RMK A01 T01341030  RH  032%=      5-min Rain = 0
KJU1 192302Z 35018G25KT 13/M03 A3024 RMK A01 T01341032  RH  031%=      5-min Rain = 0
KJU1 192303Z 34017G23KT 13/M03 A3024 RMK A01 T01331033  RH  031%=      5-min Rain = 0
KJU1 192304Z 34013G18KT 13/M03 A3024 RMK A01 T01321033  RH  032%=      5-min Rain = 0
KJU1 192305Z 34013G19KT 13/M03 A3024 RMK A01 T01321032  RH  032%=      5-min Rain = 0
KJU1 192306Z 34012G17KT 13/M03 A3024 RMK A01 T01321033  RH  032%=      5-min Rain = 0
KJU1 192307Z 34012G20KT 13/M03 A3024 RMK A01 T01321033  RH  032%=      5-min Rain = 0
KJU1 192308Z 34015G20KT 13/M03 A3024 RMK A01 T01311033  RH  032%=      5-min Rain = 0
KJU1 192309Z 34015G23KT 13/M03 A3024 RMK A01 T01311034  RH  032%=      5-min Rain = 0
KJU1 192310Z 34012G17KT 13/M03 A3024 RMK A01 T01311034  RH  032%=      5-min Rain = 0
KJU1 192311Z 34012G18KT 13/M03 A3024 RMK A01 T01311032  RH  032%=      5-min Rain = 0
KJU1 192312Z 34012G19KT 13/M03 A3024 RMK A01 T01311032  RH  032%=      5-min Rain = 0
KJU1 192313Z 33014KT 13/M03 A3024 RMK A01 T01311033  RH  032%=      5-min Rain = 0
KJU1 192314Z 34015G21KT 13/M03 A3024 RMK A01 T01301033  RH  032%=      5-min Rain = 0
KJU1 192315Z 34013G18KT 13/M03 A3024 RMK A01 T01301033  RH  032%=      5-min Rain = 0
KJU1 192316Z 33011KT 13/M03 A3024 RMK A01 T01301034  RH  032%=      5-min Rain = 0
KJU1 192317Z 34008KT 13/M03 A3024 RMK A01 T01301031  RH  032%=      5-min Rain = 0
KJU1 192318Z 33010G18KT 13/M03 A3024 RMK A01 T01301030  RH  033%=      5-min Rain = 0
KJU1 192319Z 33012G17KT 13/M03 A3024 RMK A01 T01291032  RH  032%=      5-min Rain = 0
KJU1 192320Z 34013KT 13/M03 A3024 RMK A01 T01301033  RH  032%=      5-min Rain = 0
KJU1 192321Z 34011KT 13/M03 A3025 RMK A01 T01291033  RH  032%=      5-min Rain = 0
KJU1 192322Z 35015KT 13/M03 A3025 RMK A01 T01291033  RH  032%=      5-min Rain = 0
KJU1 192323Z 35014KT 13/M03 A3025 RMK A01 T01291033  RH  032%=      5-min Rain = 0
KJU1 192324Z 34014G22KT 13/M03 A3025 RMK A01 T01281033  RH  032%=      5-min Rain = 0
KJU1 192325Z 35014KT 13/M03 A3025 RMK A01 T01281033  RH  032%=      5-min Rain = 0
KJU1 192326Z 35014KT 13/M03 A3025 RMK A01 T01281033  RH  032%=      5-min Rain = 0
KJU1 192327Z 34014KT 13/M03 A3025 RMK A01 T01271033  RH  033%=      5-min Rain = 0
KJU1 192328Z 35010KT 13/M03 A3025 RMK A01 T01281033  RH  033%=      5-min Rain = 0
KJU1 192329Z 35010KT 13/M03 A3025 RMK A01 T01271033  RH  033%=      5-min Rain = 0
KJU1 192330Z 35009KT 13/M03 A3025 RMK A01 T01271032  RH  033%=      5-min Rain = 0
KJU1 192331Z 35012KT 13/M03 A3025 RMK A01 T01271032  RH  033%=      5-min Rain = 0
KJU1 192332Z 34009KT 13/M03 A3025 RMK A01 T01271031  RH  033%=      5-min Rain = 0
KJU1 192333Z 34009KT 13/M03 A3025 RMK A01 T01261030  RH  034%=      5-min Rain = 0
KJU1 192334Z 34010KT 13/M03 A3025 RMK A01 T01261031  RH  033%=      5-min Rain = 0
KJU1 192335Z 35012G20KT 13/M03 A3025 RMK A01 T01261031  RH  033%=      5-min Rain = 0
KJU1 192336Z 35013KT 13/M03 A3025 RMK A01 T01251031  RH  034%=      5-min Rain = 0
KJU1 192337Z 34012KT 13/M03 A3025 RMK A01 T01251032  RH  033%=      5-min Rain = 0
KJU1 192338Z 34011G16KT 13/M03 A3025 RMK A01 T01251031  RH  033%=      5-min Rain = 0
KJU1 192339Z 35012KT 13/M03 A3025 RMK A01 T01251031  RH  034%=      5-min Rain = 0
KJU1 192340Z 35012KT 12/M03 A3025 RMK A01 T01241032  RH  034%=      5-min Rain = 0
KJU1 192341Z 35010KT 12/M03 A3025 RMK A01 T01241031  RH  034%=      5-min Rain = 0
KJU1 192342Z 35007KT 12/M03 A3025 RMK A01 T01241031  RH  034%=      5-min Rain = 0
KJU1 192343Z 35007KT 12/M03 A3025 RMK A01 T01231029  RH  034%=      5-min Rain = 0
KJU1 192344Z 34010G15KT 12/M03 A3025 RMK A01 T01231030  RH  034%=      5-min Rain = 0
KJU1 192345Z 35011KT 12/M03 A3026 RMK A01 T01231031  RH  034%=      5-min Rain = 0
KJU1 192346Z 35011KT 12/M03 A3025 RMK A01 T01231031  RH  034%=      5-min Rain = 0
KJU1 192347Z 35009KT 12/M03 A3026 RMK A01 T01221031  RH  034%=      5-min Rain = 0
KJU1 192348Z 34008G13KT 12/M03 A3026 RMK A01 T01231031  RH  034%=      5-min Rain = 0
KJU1 192349Z 35006KT 12/M03 A3026 RMK A01 T01221029  RH  035%=      5-min Rain = 0
KJU1 192350Z 34008KT 12/M03 A3026 RMK A01 T01211029  RH  035%=      5-min Rain = 0
KJU1 192351Z 34010KT 12/M03 A3026 RMK A01 T01201030  RH  035%=      5-min Rain = 0
KJU1 192352Z 34006KT 12/M03 A3026 RMK A01 T01201029  RH  035%=      5-min Rain = 0
KJU1 192353Z 34007KT 12/M03 A3026 RMK A01 T01201029  RH  035%=      5-min Rain = 0
KJU1 192354Z 34006KT 12/M03 A3026 RMK A01 T01191028  RH  036%=      5-min Rain = 0
KJU1 192355Z 36011KT 12/M03 A3026 RMK A01 T01181028  RH  036%=      5-min Rain = 0
KJU1 192356Z 33008G13KT 12/M03 A3026 RMK A01 T01181030  RH  036%=      5-min Rain = 0
KJU1 192357Z 32007G12KT 12/M03 A3026 RMK A01 T01191029  RH  035%=      5-min Rain = 0
KJU1 192358Z 34007G12KT 12/M03 A3026 RMK A01 T01191029  RH  036%=      5-min Rain = 0
KJU1 192359Z 34009KT 12/M03 A3026 RMK A01 T01181029  RH  036%=      5-min Rain = 0
KJU1 200000Z 34008KT 12/M03 A3026 RMK A01 T01181029  RH  036%=      5-min Rain = 0
KJU1 200001Z 33007G12KT 12/M03 A3026 RMK A01 T01181029  RH  036%=      5-min Rain = 0
KJU1 200002Z 33009G15KT 12/M03 A3026 RMK A01 T01181029  RH  036%=      5-min Rain = 0
KJU1 200003Z 34011G16KT 12/M03 A3026 RMK A01 T01181029  RH  036%=      5-min Rain = 0
KJU1 200004Z 34010KT 12/M03 A3026 RMK A01 T01181030  RH  035%=      5-min Rain = 0
KJU1 200005Z 34006KT 12/M03 A3026 RMK A01 T01191030  RH  035%=      5-min Rain = 0
KJU1 200006Z 34006G11KT 12/M03 A3026 RMK A01 T01181028  RH  036%=      5-min Rain = 0
KJU1 200007Z 33008KT 12/M03 A3026 RMK A01 T01171029  RH  036%=      5-min Rain = 0
KJU1 200008Z 34007G12KT 12/M03 A3026 RMK A01 T01171029  RH  036%=      5-min Rain = 0
KJU1 200009Z 34008G15KT 12/M03 A3026 RMK A01 T01171029  RH  036%=      5-min Rain = 0
KJU1 200010Z 33010KT 12/M03 A3026 RMK A01 T01171029  RH  036%=      5-min Rain = 0
KJU1 200011Z 35006KT 12/M03 A3026 RMK A01 T01171029  RH  036%=      5-min Rain = 0
KJU1 200012Z 34006KT 12/M03 A3026 RMK A01 T01171028  RH  036%=      5-min Rain = 0
KJU1 200013Z 35006KT 12/M03 A3027 RMK A01 T01161029  RH  036%=      5-min Rain = 0
KJU1 200014Z 34005KT 12/M03 A3027 RMK A01 T01151029  RH  036%=      5-min Rain = 0
KJU1 200015Z 33007KT 12/M03 A3027 RMK A01 T01151029  RH  037%=      5-min Rain = 0
KJU1 200016Z 34008KT 12/M03 A3027 RMK A01 T01151028  RH  037%=      5-min Rain = 0
KJU1 200017Z 34008KT 11/M03 A3027 RMK A01 T01141028  RH  037%=      5-min Rain = 0
KJU1 200018Z 34007KT 11/M03 A3027 RMK A01 T01141029  RH  037%=      5-min Rain = 0
KJU1 200019Z 35007KT 11/M03 A3027 RMK A01 T01141029  RH  037%=      5-min Rain = 0
KJU1 200020Z 35008KT 11/M03 A3027 RMK A01 T01141028  RH  037%=      5-min Rain = 0
KJU1 200021Z 34007KT 11/M03 A3027 RMK A01 T01141028  RH  037%=      5-min Rain = 0
KJU1 200022Z 33007KT 11/M03 A3027 RMK A01 T01131028  RH  037%=      5-min Rain = 0
KJU1 200023Z 34008KT 11/M03 A3027 RMK A01 T01131028  RH  037%=      5-min Rain = 0
KJU1 200024Z 36007KT 11/M03 A3027 RMK A01 T01131028  RH  037%=      5-min Rain = 0
KJU1 200025Z 34009KT 11/M03 A3027 RMK A01 T01131028  RH  037%=      5-min Rain = 0
KJU1 200026Z 35008KT 11/M03 A3027 RMK A01 T01131028  RH  037%=      5-min Rain = 0
KJU1 200027Z 34009KT 11/M03 A3027 RMK A01 T01131028  RH  037%=      5-min Rain = 0
KJU1 200028Z 34007KT 11/M03 A3027 RMK A01 T01131028  RH  037%=      5-min Rain = 0
KJU1 200029Z 34009KT 11/M03 A3027 RMK A01 T01121027  RH  038%=      5-min Rain = 0
KJU1 200030Z 34007KT 11/M03 A3027 RMK A01 T01121028  RH  037%=      5-min Rain = 0
KJU1 200031Z 34007KT 11/M03 A3027 RMK A01 T01121027  RH  038%=      5-min Rain = 0
KJU1 200032Z 34008KT 11/M03 A3027 RMK A01 T01121027  RH  038%=      5-min Rain = 0
KJU1 200033Z 34009KT 11/M03 A3027 RMK A01 T01121027  RH  038%=      5-min Rain = 0
KJU1 200034Z 33007KT 11/M03 A3027 RMK A01 T01111027  RH  038%=      5-min Rain = 0
KJU1 200035Z 34007KT 11/M03 A3027 RMK A01 T01111027  RH  038%=      5-min Rain = 0
KJU1 200036Z 34007KT 11/M03 A3027 RMK A01 T01111026  RH  038%=      5-min Rain = 0
KJU1 200037Z 34008KT 11/M03 A3027 RMK A01 T01101027  RH  038%=      5-min Rain = 0
KJU1 200038Z 34007KT 11/M03 A3027 RMK A01 T01101027  RH  038%=      5-min Rain = 0
KJU1 200039Z 35007KT 11/M03 A3027 RMK A01 T01091026  RH  039%=      5-min Rain = 0
KJU1 200040Z 34008KT 11/M03 A3027 RMK A01 T01091027  RH  039%=      5-min Rain = 0
KJU1 200041Z 35008KT 11/M03 A3027 RMK A01 T01091026  RH  039%=      5-min Rain = 0
KJU1 200042Z 34010KT 11/M03 A3027 RMK A01 T01091027  RH  039%=      5-min Rain = 0
KJU1 200043Z 35006KT 11/M03 A3027 RMK A01 T01091027  RH  038%=      5-min Rain = 0
KJU1 200044Z 35008KT 11/M03 A3027 RMK A01 T01091026  RH  039%=      5-min Rain = 0
KJU1 200045Z 35007KT 11/M03 A3027 RMK A01 T01091026  RH  039%=      5-min Rain = 0
KJU1 200046Z 34007KT 11/M03 A3027 RMK A01 T01091026  RH  039%=      5-min Rain = 0
KJU1 200047Z 35009KT 11/M03 A3027 RMK A01 T01081026  RH  039%=      5-min Rain = 0
KJU1 200048Z 35010KT 11/M03 A3027 RMK A01 T01081027  RH  039%=      5-min Rain = 0
KJU1 200049Z 34009KT 11/M03 A3027 RMK A01 T01091027  RH  039%=      5-min Rain = 0
KJU1 200050Z 34007KT 11/M03 A3027 RMK A01 T01091027  RH  039%=      5-min Rain = 0
KJU1 200051Z 35010KT 11/M03 A3027 RMK A01 T01091026  RH  039%=      5-min Rain = 0
KJU1 200052Z 34008G13KT 11/M03 A3027 RMK A01 T01091027  RH  038%=      5-min Rain = 0
KJU1 200053Z 34007KT 11/M03 A3027 RMK A01 T01101027  RH  038%=      5-min Rain = 0
KJU1 200054Z 34007KT 11/M03 A3027 RMK A01 T01101027  RH  038%=      5-min Rain = 0
KJU1 200055Z 35007KT 11/M03 A3027 RMK A01 T01091026  RH  039%=      5-min Rain = 0
KJU1 200056Z 36008KT 11/M03 A3027 RMK A01 T01081026  RH  039%=      5-min Rain = 0
KJU1 200057Z 35009KT 11/M03 A3027 RMK A01 T01081027  RH  039%=      5-min Rain = 0
KJU1 200058Z 36007KT 11/M03 A3027 RMK A01 T01081027  RH  039%=      5-min Rain = 0
KJU1 200059Z 35009KT 11/M03 A3027 RMK A01 T01081026  RH  039%=      5-min Rain = 0
KJU1 200100Z 00008KT 11/M03 A3027 RMK A01 T01071026  RH  039%=      5-min Rain = 0
KJU1 200101Z 35007KT 11/M03 A3027 RMK A01 T01071027  RH  039%=      5-min Rain = 0
KJU1 200102Z 35008KT 11/M03 A3027 RMK A01 T01071026  RH  039%=      5-min Rain = 0
KJU1 200103Z 35007KT 11/M03 A3027 RMK A01 T01061026  RH  039%=      5-min Rain = 0
KJU1 200104Z 35007KT 11/M03 A3027 RMK A01 T01061026  RH  040%=      5-min Rain = 0
KJU1 200105Z 35006KT 11/M03 A3027 RMK A01 T01061026  RH  040%=      5-min Rain = 0
KJU1 200106Z 35007KT 11/M03 A3027 RMK A01 T01051026  RH  040%=      5-min Rain = 0
KJU1 200107Z 00005KT 11/M03 A3027 RMK A01 T01051026  RH  040%=      5-min Rain = 0
KJU1 200108Z 35006KT 10/M03 A3027 RMK A01 T01031026  RH  040%=      5-min Rain = 0
KJU1 200109Z 35004KT 10/M03 A3027 RMK A01 T01031026  RH  040%=      5-min Rain = 0
KJU1 200110Z 35005KT 10/M03 A3027 RMK A01 T01031025  RH  041%=      5-min Rain = 0
KJU1 200111Z 36004KT 10/M03 A3027 RMK A01 T01021026  RH  041%=      5-min Rain = 0
KJU1 200112Z 35004KT 10/M03 A3027 RMK A01 T01021026  RH  041%=      5-min Rain = 0
KJU1 200113Z 36004KT 10/M03 A3027 RMK A01 T01011026  RH  041%=      5-min Rain = 0
KJU1 200114Z 01004KT 10/M03 A3028 RMK A01 T01011026  RH  041%=      5-min Rain = 0
KJU1 200115Z 00004KT 10/M03 A3028 RMK A01 T01001025  RH  041%=      5-min Rain = 0
KJU1 200116Z 00004KT 10/M03 A3028 RMK A01 T00991025  RH  042%=      5-min Rain = 0
KJU1 200117Z 36003KT 10/M03 A3028 RMK A01 T00981025  RH  042%=      5-min Rain = 0
KJU1 200118Z 01003KT 10/M03 A3028 RMK A01 T00971025  RH  042%=      5-min Rain = 0
KJU1 200119Z 00002KT 10/M03 A3028 RMK A01 T00971026  RH  042%=      5-min Rain = 0
KJU1 200120Z 35002KT 10/M03 A3028 RMK A01 T00971025  RH  042%=      5-min Rain = 0
KJU1 200121Z 36002KT 10/M03 A3028 RMK A01 T00961026  RH  042%=      5-min Rain = 0
KJU1 200122Z 00002KT 10/M03 A3028 RMK A01 T00951025  RH  043%=      5-min Rain = 0
KJU1 200123Z 01002KT 10/M03 A3028 RMK A01 T00951026  RH  043%=      5-min Rain = 0
KJU1 200124Z 02003KT 09/M03 A3028 RMK A01 T00931026  RH  043%=      5-min Rain = 0
KJU1 200125Z 00002KT 09/M03 A3028 RMK A01 T00911026  RH  044%=      5-min Rain = 0
KJU1 200126Z 01002KT 09/M03 A3028 RMK A01 T00891026  RH  044%=      5-min Rain = 0
KJU1 200127Z 01002KT 09/M03 A3028 RMK A01 T00861027  RH  045%=      5-min Rain = 0
KJU1 200128Z 01002KT 08/M03 A3028 RMK A01 T00831027  RH  046%=      5-min Rain = 0
KJU1 200129Z 01002KT 08/M03 A3028 RMK A01 T00791028  RH  047%=      5-min Rain = 0
KJU1 200130Z 01002KT 08/M03 A3028 RMK A01 T00751028  RH  048%=      5-min Rain = 0
KJU1 200131Z 01002KT 07/M03 A3028 RMK A01 T00731027  RH  049%=      5-min Rain = 0
KJU1 200132Z 03001KT 07/M03 A3028 RMK A01 T00701027  RH  050%=      5-min Rain = 0
KJU1 200133Z 02002KT 07/M03 A3028 RMK A01 T00691027  RH  050%=      5-min Rain = 0
KJU1 200134Z 02002KT 07/M03 A3028 RMK A01 T00691026  RH  051%=      5-min Rain = 0
KJU1 200135Z 01002KT 07/M03 A3028 RMK A01 T00671026  RH  051%=      5-min Rain = 0
KJU1 200136Z 02002KT 07/M03 A3029 RMK A01 T00661027  RH  051%=      5-min Rain = 0
KJU1 200137Z 02002KT 07/M03 A3029 RMK A01 T00671026  RH  051%=      5-min Rain = 0
KJU1 200138Z 02001KT 07/M03 A3029 RMK A01 T00671026  RH  051%=      5-min Rain = 0
KJU1 200139Z 02001KT 07/M03 A3029 RMK A01 T00661027  RH  052%=      5-min Rain = 0
KJU1 200140Z 03001KT 06/M03 A3029 RMK A01 T00641027  RH  052%=      5-min Rain = 0
KJU1 200141Z 02001KT 06/M03 A3029 RMK A01 T00641027  RH  052%=      5-min Rain = 0
KJU1 200142Z 03001KT 07/M03 A3029 RMK A01 T00651027  RH  052%=      5-min Rain = 0
KJU1 200143Z 02001KT 07/M03 A3029 RMK A01 T00651026  RH  052%=      5-min Rain = 0
KJU1 200144Z 02001KT 07/M03 A3029 RMK A01 T00651027  RH  052%=      5-min Rain = 0
KJU1 200145Z 01001KT 06/M03 A3029 RMK A01 T00641028  RH  052%=      5-min Rain = 0
KJU1 200146Z 36001KT 06/M03 A3029 RMK A01 T00631029  RH  052%=      5-min Rain = 0
KJU1 200147Z 35001KT 06/M03 A3029 RMK A01 T00611028  RH  053%=      5-min Rain = 0
KJU1 200148Z 36001KT 06/M03 A3029 RMK A01 T00601028  RH  053%=      5-min Rain = 0
KJU1 200149Z 00002KT 06/M03 A3029 RMK A01 T00601028  RH  053%=      5-min Rain = 0
KJU1 200150Z 00002KT 06/M03 A3029 RMK A01 T00601028  RH  053%=      5-min Rain = 0
KJU1 200151Z 00002KT 06/M03 A3029 RMK A01 T00591028  RH  054%=      5-min Rain = 0
KJU1 200152Z 01002KT 06/M03 A3029 RMK A01 T00581027  RH  054%=      5-min Rain = 0
KJU1 200153Z 01002KT 06/M03 A3029 RMK A01 T00561026  RH  056%=      5-min Rain = 0
KJU1 200154Z 01003KT 05/M03 A3029 RMK A01 T00541025  RH  057%=      5-min Rain = 0
KJU1 200155Z 01003KT 05/M02 A3029 RMK A01 T00521024  RH  058%=      5-min Rain = 0
KJU1 200156Z 36003KT 05/M02 A3029 RMK A01 T00501024  RH  059%=      5-min Rain = 0
KJU1 200157Z 01004KT 05/M02 A3029 RMK A01 T00491024  RH  059%=      5-min Rain = 0
KJU1 200158Z 01004KT 05/M02 A3029 RMK A01 T00491024  RH  059%=      5-min Rain = 0
KJU1 200159Z 00004KT 05/M02 A3029 RMK A01 T00511024  RH  059%=      5-min Rain = 0
KJU1 200200Z 35004KT 05/M02 A3029 RMK A01 T00511023  RH  059%=      5-min Rain = 0
KJU1 200201Z 00004KT 05/M02 A3029 RMK A01 T00521022  RH  059%=      5-min Rain = 0
KJU1 200202Z 35003KT 05/M02 A3029 RMK A01 T00531021  RH  059%=      5-min Rain = 0
KJU1 200203Z 34003KT 05/M02 A3029 RMK A01 T00531020  RH  059%=      5-min Rain = 0
KJU1 200204Z 34003KT 05/M02 A3029 RMK A01 T00531020  RH  059%=      5-min Rain = 0
KJU1 200205Z 34003KT 05/M02 A3029 RMK A01 T00531019  RH  059%=      5-min Rain = 0
KJU1 200206Z 34004KT 05/M02 A3029 RMK A01 T00541018  RH  060%=      5-min Rain = 0
KJU1 200207Z 34004KT 06/M02 A3029 RMK A01 T00551016  RH  060%=      5-min Rain = 0
KJU1 200208Z 35003KT 06/M02 A3029 RMK A01 T00561015  RH  060%=      5-min Rain = 0
KJU1 200209Z 35003KT 06/M02 A3029 RMK A01 T00571016  RH  059%=      5-min Rain = 0
KJU1 200210Z 35004KT 06/M02 A3029 RMK A01 T00571016  RH  059%=      5-min Rain = 0
KJU1 200211Z 36003KT 05/M02 A3029 RMK A01 T00541020  RH  059%=      5-min Rain = 0
KJU1 200212Z 00004KT 05/M02 A3029 RMK A01 T00501022  RH  060%=      5-min Rain = 0
KJU1 200213Z 00003KT 05/M02 A3029 RMK A01 T00471022  RH  061%=      5-min Rain = 0
KJU1 200214Z 00004KT 04/M02 A3029 RMK A01 T00441022  RH  062%=      5-min Rain = 0
KJU1 200215Z 00003KT 04/M02 A3029 RMK A01 T00411022  RH  063%=      5-min Rain = 0
KJU1 200216Z 01003KT 04/M02 A3029 RMK A01 T00401021  RH  064%=      5-min Rain = 0
KJU1 200217Z 01003KT 04/M02 A3029 RMK A01 T00391021  RH  065%=      5-min Rain = 0
KJU1 200218Z 00003KT 04/M02 A3029 RMK A01 T00391020  RH  065%=      5-min Rain = 0
KJU1 200219Z 00003KT 04/M02 A303 RMK A01 T00391019  RH  066%=      5-min Rain = 0
KJU1 200220Z 01002KT 04/M02 A303 RMK A01 T00401018  RH  066%=      5-min Rain = 0
KJU1 200221Z 01003KT 04/M02 A303 RMK A01 T00401019  RH  065%=      5-min Rain = 0
KJU1 200222Z 01003KT 04/M02 A303 RMK A01 T00411020  RH  065%=      5-min Rain = 0
KJU1 200223Z 01003KT 04/M02 A303 RMK A01 T00421020  RH  064%=      5-min Rain = 0
KJU1 200224Z 02002KT 04/M02 A303 RMK A01 T00441021  RH  063%=      5-min Rain = 0
KJU1 200225Z 03003KT 05/M02 A303 RMK A01 T00451021  RH  062%=      5-min Rain = 0
KJU1 200226Z 04002KT 05/M02 A303 RMK A01 T00481021  RH  061%=      5-min Rain = 0
KJU1 200227Z 04003KT 05/M02 A303 RMK A01 T00501022  RH  060%=      5-min Rain = 0
KJU1 200228Z 04003KT 05/M02 A303 RMK A01 T00511022  RH  059%=      5-min Rain = 0
KJU1 200229Z 03003KT 05/M02 A303 RMK A01 T00521022  RH  059%=      5-min Rain = 0
KJU1 200230Z 03002KT 05/M02 A303 RMK A01 T00521022  RH  059%=      5-min Rain = 0
KJU1 200231Z 03002KT 05/M02 A303 RMK A01 T00521023  RH  059%=      5-min Rain = 0
KJU1 200232Z 02002KT 05/M03 A3031 RMK A01 T00491025  RH  059%=      5-min Rain = 0
KJU1 200233Z 02002KT 05/M03 A3031 RMK A01 T00451026  RH  060%=      5-min Rain = 0
KJU1 200234Z 02001KT 04/M03 A3031 RMK A01 T00441026  RH  060%=      5-min Rain = 0
KJU1 200235Z 01001KT 05/M03 A3031 RMK A01 T00451025  RH  061%=      5-min Rain = 0
KJU1 200236Z 02000KT 05/M03 A3031 RMK A01 T00461025  RH  060%=      5-min Rain = 0
KJU1 200237Z 02001KT 04/M03 A3031 RMK A01 T00441025  RH  061%=      5-min Rain = 0
KJU1 200238Z 02001KT 04/M03 A3031 RMK A01 T00421026  RH  061%=      5-min Rain = 0
KJU1 200239Z 01001KT 04/M03 A3031 RMK A01 T00391028  RH  062%=      5-min Rain = 0
KJU1 200240Z 02001KT 04/M03 A3031 RMK A01 T00371028  RH  062%=      5-min Rain = 0
KJU1 200241Z 01001KT 04/M03 A3031 RMK A01 T00361028  RH  063%=      5-min Rain = 0
KJU1 200242Z 01001KT 04/M03 A3031 RMK A01 T00351028  RH  063%=      5-min Rain = 0
KJU1 200243Z 01000KT 03/M03 A3031 RMK A01 T00331029  RH  064%=      5-min Rain = 0
KJU1 200244Z 35000KT 03/M03 A3031 RMK A01 T00311029  RH  065%=      5-min Rain = 0
KJU1 200245Z 29001KT 03/M03 A3032 RMK A01 T00321028  RH  065%=      5-min Rain = 0
KJU1 200246Z 30001KT 03/M03 A3032 RMK A01 T00331028  RH  065%=      5-min Rain = 0
KJU1 200247Z 30001KT 04/M03 A3032 RMK A01 T00351026  RH  064%=      5-min Rain = 0
KJU1 200248Z 28000KT 04/M03 A3032 RMK A01 T00361026  RH  064%=      5-min Rain = 0
KJU1 200249Z 26000KT 04/M03 A3032 RMK A01 T00361027  RH  063%=      5-min Rain = 0
KJU1 200250Z 26001KT 04/M03 A3032 RMK A01 T00351028  RH  063%=      5-min Rain = 0
KJU1 200251Z 27001KT 03/M03 A3032 RMK A01 T00341029  RH  063%=      5-min Rain = 0
KJU1 200252Z 26001KT 03/M03 A3032 RMK A01 T00291031  RH  064%=      5-min Rain = 0
KJU1 200253Z 25001KT 03/M03 A3032 RMK A01 T00251031  RH  067%=      5-min Rain = 0
KJU1 200254Z 25000KT 02/M03 A3032 RMK A01 T00241027  RH  069%=      5-min Rain = 0
KJU1 200255Z 26000KT 03/M02 A3032 RMK A01 T00291023  RH  068%=      5-min Rain = 0
KJU1 200256Z 00000KT 03/M03 A3032 RMK A01 T00311025  RH  066%=      5-min Rain = 0
KJU1 200257Z 35000KT 03/M03 A3032 RMK A01 T00281028  RH  067%=      5-min Rain = 0
KJU1 200258Z 03000KT 03/M03 A3032 RMK A01 T00281027  RH  067%=      5-min Rain = 0
KJU1 200259Z 03001KT 03/M03 A3032 RMK A01 T00311026  RH  066%=      5-min Rain = 0
KJU1 200300Z 02001KT 03/M03 A3032 RMK A01 T00321027  RH  065%=      5-min Rain = 0
KJU1 200301Z 02001KT 03/M03 A3032 RMK A01 T00261029  RH  067%=      5-min Rain = 0
KJU1 200302Z 03001KT 02/M03 A3032 RMK A01 T00221027  RH  070%=      5-min Rain = 0
KJU1 200303Z 03002KT 02/M03 A3032 RMK A01 T00191027  RH  072%=      5-min Rain = 0
KJU1 200304Z 03002KT 02/M03 A3032 RMK A01 T00161027  RH  073%=      5-min Rain = 0
KJU1 200305Z 02002KT 01/M03 A3032 RMK A01 T00141027  RH  074%=      5-min Rain = 0
KJU1 200306Z 02002KT 01/M03 A3032 RMK A01 T00131027  RH  075%=      5-min Rain = 0
KJU1 200307Z 02003KT 01/M03 A3032 RMK A01 T00111027  RH  075%=      5-min Rain = 0
KJU1 200308Z 02003KT 01/M03 A3032 RMK A01 T00121026  RH  076%=      5-min Rain = 0
KJU1 200309Z 02003KT 02/M02 A3032 RMK A01 T00151024  RH  075%=      5-min Rain = 0
KJU1 200310Z 02003KT 02/M02 A3032 RMK A01 T00181023  RH  074%=      5-min Rain = 0
KJU1 200311Z 02003KT 02/M02 A3032 RMK A01 T00201023  RH  073%=      5-min Rain = 0
KJU1 200312Z 02002KT 02/M02 A3032 RMK A01 T00221023  RH  072%=      5-min Rain = 0
KJU1 200313Z 01002KT 02/M02 A3032 RMK A01 T00231024  RH  071%=      5-min Rain = 0
KJU1 200314Z 02002KT 02/M02 A3032 RMK A01 T00241024  RH  070%=      5-min Rain = 0
KJU1 200315Z 03002KT 03/M02 A3032 RMK A01 T00261024  RH  070%=      5-min Rain = 0
KJU1 200316Z 02002KT 03/M02 A3033 RMK A01 T00281023  RH  069%=      5-min Rain = 0
KJU1 200317Z 02001KT 03/M02 A3033 RMK A01 T00311023  RH  067%=      5-min Rain = 0
KJU1 200318Z 01002KT 03/M02 A3033 RMK A01 T00321024  RH  067%=      5-min Rain = 0
KJU1 200319Z 02002KT 03/M02 A3033 RMK A01 T00341023  RH  066%=      5-min Rain = 0
KJU1 200320Z 02002KT 04/M02 A3033 RMK A01 T00351024  RH  065%=      5-min Rain = 0
KJU1 200321Z 02002KT 04/M02 A3033 RMK A01 T00371023  RH  065%=      5-min Rain = 0
KJU1 200322Z 00002KT 04/M03 A3033 RMK A01 T00371025  RH  064%=      5-min Rain = 0
KJU1 200323Z 01002KT 03/M03 A3033 RMK A01 T00331029  RH  064%=      5-min Rain = 0
KJU1 200324Z 01002KT 03/M03 A3033 RMK A01 T00271030  RH  066%=      5-min Rain = 0
KJU1 200325Z 02002KT 03/M03 A3033 RMK A01 T00261028  RH  067%=      5-min Rain = 0
KJU1 200326Z 03003KT 03/M03 A3033 RMK A01 T00281026  RH  068%=      5-min Rain = 0
KJU1 200327Z 02003KT 03/M02 A3033 RMK A01 T00321024  RH  066%=      5-min Rain = 0
KJU1 200328Z 02003KT 04/M02 A3033 RMK A01 T00361023  RH  065%=      5-min Rain = 0
KJU1 200329Z 02003KT 04/M02 A3033 RMK A01 T00391024  RH  064%=      5-min Rain = 0
KJU1 200330Z 02003KT 04/M02 A3033 RMK A01 T00391024  RH  063%=      5-min Rain = 0
KJU1 200331Z 02002KT 04/M02 A3033 RMK A01 T00391024  RH  063%=      5-min Rain = 0
KJU1 200332Z 02002KT 04/M02 A3033 RMK A01 T00391024  RH  063%=      5-min Rain = 0
KJU1 200333Z 02003KT 04/M03 A3033 RMK A01 T00381025  RH  064%=      5-min Rain = 0
KJU1 200334Z 02002KT 04/M03 A3033 RMK A01 T00381025  RH  064%=      5-min Rain = 0
KJU1 200335Z 02003KT 04/M02 A3033 RMK A01 T00371024  RH  064%=      5-min Rain = 0
KJU1 200336Z 02002KT 04/M03 A3033 RMK A01 T00371025  RH  064%=      5-min Rain = 0
KJU1 200337Z 03002KT 04/M03 A3032 RMK A01 T00371025  RH  064%=      5-min Rain = 0
KJU1 200338Z 03002KT 04/M03 A3032 RMK A01 T00361025  RH  064%=      5-min Rain = 0
KJU1 200339Z 03002KT 04/M03 A3032 RMK A01 T00351026  RH  065%=      5-min Rain = 0
KJU1 200340Z 04002KT 04/M03 A3033 RMK A01 T00351026  RH  064%=      5-min Rain = 0
KJU1 200341Z 03002KT 03/M03 A3033 RMK A01 T00331028  RH  064%=      5-min Rain = 0
KJU1 200342Z 04002KT 03/M03 A3033 RMK A01 T00331028  RH  065%=      5-min Rain = 0
KJU1 200343Z 04002KT 03/M03 A3032 RMK A01 T00331027  RH  065%=      5-min Rain = 0
KJU1 200344Z 05003KT 03/M03 A3032 RMK A01 T00341027  RH  064%=      5-min Rain = 0
KJU1 200345Z 05002KT 04/M03 A3032 RMK A01 T00361027  RH  064%=      5-min Rain = 0
KJU1 200346Z 05002KT 04/M03 A3032 RMK A01 T00371026  RH  063%=      5-min Rain = 0
KJU1 200347Z 05002KT 04/M03 A3032 RMK A01 T00391026  RH  062%=      5-min Rain = 0
KJU1 200348Z 04002KT 04/M03 A3032 RMK A01 T00391027  RH  062%=      5-min Rain = 0
KJU1 200349Z 04002KT 04/M03 A3032 RMK A01 T00391027  RH  062%=      5-min Rain = 0
KJU1 200350Z 04002KT 04/M03 A3032 RMK A01 T00381028  RH  062%=      5-min Rain = 0
KJU1 200351Z 03002KT 04/M03 A3032 RMK A01 T00361030  RH  062%=      5-min Rain = 0
KJU1 200352Z 03002KT 04/M03 A3032 RMK A01 T00351029  RH  063%=      5-min Rain = 0
KJU1 200353Z 02002KT 03/M03 A3032 RMK A01 T00341030  RH  063%=      5-min Rain = 0
KJU1 200354Z 02002KT 03/M03 A3032 RMK A01 T00321031  RH  063%=      5-min Rain = 0
KJU1 200355Z 02002KT 03/M03 A3032 RMK A01 T00301031  RH  064%=      5-min Rain = 0
KJU1 200356Z 02001KT 03/M03 A3032 RMK A01 T00281031  RH  065%=      5-min Rain = 0
KJU1 200357Z 01001KT 02/M03 A3032 RMK A01 T00241032  RH  066%=      5-min Rain = 0
KJU1 200358Z 02001KT 02/M03 A3032 RMK A01 T00221033  RH  067%=      5-min Rain = 0
KJU1 200359Z 03002KT 02/M03 A3032 RMK A01 T00211033  RH  067%=      5-min Rain = 0
KJU1 200400Z 03002KT 02/M03 A3032 RMK A01 T00191034  RH  068%=      5-min Rain = 0
KJU1 200401Z 04001KT 02/M03 A3032 RMK A01 T00191033  RH  068%=      5-min Rain = 0
KJU1 200402Z 04001KT 02/M03 A3032 RMK A01 T00191032  RH  069%=      5-min Rain = 0
KJU1 200403Z 04002KT 02/M03 A3032 RMK A01 T00201031  RH  069%=      5-min Rain = 0
KJU1 200404Z 04002KT 02/M03 A3032 RMK A01 T00211030  RH  069%=      5-min Rain = 0
KJU1 200405Z 04003KT 02/M03 A3032 RMK A01 T00231030  RH  068%=      5-min Rain = 0
KJU1 200406Z 04003KT 02/M03 A3032 RMK A01 T00201032  RH  069%=      5-min Rain = 0
KJU1 200407Z 03002KT 02/M04 A3032 RMK A01 T00151035  RH  070%=      5-min Rain = 0
KJU1 200408Z 03002KT 01/M04 A3032 RMK A01 T00101037  RH  071%=      5-min Rain = 0
KJU1 200409Z 03002KT 01/M04 A3032 RMK A01 T00071037  RH  073%=      5-min Rain = 0
KJU1 200410Z 04002KT 01/M04 A3032 RMK A01 T00051035  RH  074%=      5-min Rain = 0
KJU1 200411Z 03002KT 01/M03 A3032 RMK A01 T00051032  RH  076%=      5-min Rain = 0
KJU1 200412Z 02001KT 01/M03 A3032 RMK A01 T00051031  RH  077%=      5-min Rain = 0
KJU1 200413Z 00001KT 01/M03 A3032 RMK A01 T00061030  RH  077%=      5-min Rain = 0
KJU1 200414Z 34000KT 01/M03 A3032 RMK A01 T00071030  RH  076%=      5-min Rain = 0
KJU1 200415Z 32001KT 01/M03 A3032 RMK A01 T00081030  RH  076%=      5-min Rain = 0
KJU1 200416Z 26000KT 01/M03 A3032 RMK A01 T00101029  RH  075%=      5-min Rain = 0
KJU1 200417Z 25001KT 01/M03 A3032 RMK A01 T00111032  RH  073%=      5-min Rain = 0
KJU1 200418Z 24000KT 01/M03 A3033 RMK A01 T00091034  RH  073%=      5-min Rain = 0
KJU1 200419Z 00000KT 01/M03 A3033 RMK A01 T00081033  RH  074%=      5-min Rain = 0
KJU1 200420Z 19000KT 01/M03 A3033 RMK A01 T00101030  RH  075%=      5-min Rain = 0
KJU1 200421Z 19001KT 01/M03 A3033 RMK A01 T00131028  RH  074%=      5-min Rain = 0
KJU1 200422Z 19000KT 01/M03 A3033 RMK A01 T00101032  RH  073%=      5-min Rain = 0
KJU1 200423Z 00000KT 01/M04 A3033 RMK A01 T00061036  RH  073%=      5-min Rain = 0
KJU1 200424Z 00000KT 01/M03 A3033 RMK A01 T00051034  RH  075%=      5-min Rain = 0
KJU1 200425Z 00000KT 01/M03 A3033 RMK A01 T00071029  RH  077%=      5-min Rain = 0
KJU1 200426Z 00000KT 01/M03 A3033 RMK A01 T00091028  RH  076%=      5-min Rain = 0
KJU1 200427Z 00000KT 01/M03 A3033 RMK A01 T00111028  RH  075%=      5-min Rain = 0
KJU1 200428Z 00000KT 01/M03 A3033 RMK A01 T00121029  RH  074%=      5-min Rain = 0
KJU1 200429Z 27000KT 01/M03 A3033 RMK A01 T00131029  RH  074%=      5-min Rain = 0
KJU1 200430Z 27001KT 01/M03 A3033 RMK A01 T00131029  RH  074%=      5-min Rain = 0
KJU1 200431Z 29001KT 01/M03 A3033 RMK A01 T00111031  RH  074%=      5-min Rain = 0
KJU1 200432Z 30001KT 01/M03 A3033 RMK A01 T00101031  RH  074%=      5-min Rain = 0
KJU1 200433Z 31001KT 01/M03 A3033 RMK A01 T00091033  RH  074%=      5-min Rain = 0
KJU1 200434Z 32001KT 01/M03 A3033 RMK A01 T00071032  RH  075%=      5-min Rain = 0
KJU1 200435Z 34001KT 01/M03 A3033 RMK A01 T00061031  RH  076%=      5-min Rain = 0
KJU1 200436Z 35001KT 01/M03 A3033 RMK A01 T00061030  RH  076%=      5-min Rain = 0
KJU1 200437Z 35002KT 01/M03 A3033 RMK A01 T00071029  RH  077%=      5-min Rain = 0
KJU1 200438Z 35001KT 01/M03 A3034 RMK A01 T00081029  RH  076%=      5-min Rain = 0
KJU1 200439Z 35000KT 01/M03 A3034 RMK A01 T00071030  RH  076%=      5-min Rain = 0
KJU1 200440Z 35000KT 01/M03 A3034 RMK A01 T00071029  RH  077%=      5-min Rain = 0
KJU1 200441Z 00000KT 01/M03 A3034 RMK A01 T00071029  RH  077%=      5-min Rain = 0
KJU1 200442Z 00000KT 01/M03 A3034 RMK A01 T00061029  RH  077%=      5-min Rain = 0
KJU1 200443Z 07000KT 01/M03 A3034 RMK A01 T00061030  RH  077%=      5-min Rain = 0
KJU1 200444Z 00000KT 01/M03 A3034 RMK A01 T00061030  RH  077%=      5-min Rain = 0
KJU1 200445Z 00000KT 00/M04 A3034 RMK A01 T00031035  RH  075%=      5-min Rain = 0
KJU1 200446Z 00000KT 00/04 A3034 RMK A01 T00000-37  RH  076%=      5-min Rain = 0
KJU1 200447Z 00000KT 00/03 A3034 RMK A01 T00000-34  RH  078%=      5-min Rain = 0
KJU1 200448Z 17001KT 00/M03 A3034 RMK A01 T00011032  RH  078%=      5-min Rain = 0
KJU1 200449Z 17001KT 00/M03 A3034 RMK A01 T00031030  RH  078%=      5-min Rain = 0
KJU1 200450Z 18001KT 00/M03 A3034 RMK A01 T00031031  RH  078%=      5-min Rain = 0
KJU1 200451Z 18002KT 00/M03 A3034 RMK A01 T00021034  RH  077%=      5-min Rain = 0
KJU1 200452Z 18002KT 00/M03 A3034 RMK A01 T00011034  RH  077%=      5-min Rain = 0
KJU1 200453Z 18002KT 00/M03 A3034 RMK A01 T00021030  RH  079%=      5-min Rain = 0
KJU1 200454Z 19002KT 01/M03 A3034 RMK A01 T00051025  RH  080%=      5-min Rain = 0
KJU1 200455Z 19003KT 01/M03 A3034 RMK A01 T00071026  RH  079%=      5-min Rain = 0
KJU1 200456Z 18003KT 00/M04 A3034 RMK A01 T00011037  RH  076%=      5-min Rain = 0
KJU1 200457Z 18002KT M00/M04 A3034 RMK A01 T10041042  RH  075%=      5-min Rain = 0
KJU1 200458Z 18003KT M01/M04 A3034 RMK A01 T10071042  RH  077%=      5-min Rain = 0
KJU1 200459Z 18003KT M01/M04 A3034 RMK A01 T10061036  RH  080%=      5-min Rain = 0
KJU1 200500Z 19002KT M00/M03 A3034 RMK A01 T10041033  RH  081%=      5-min Rain = 0
KJU1 200501Z 19002KT M00/M03 A3034 RMK A01 T10031032  RH  081%=      5-min Rain = 0
KJU1 200502Z 19001KT M00/M03 A3034 RMK A01 T10031033  RH  080%=      5-min Rain = 0
KJU1 200503Z 19001KT M00/M03 A3034 RMK A01 T10031033  RH  080%=      5-min Rain = 0
KJU1 200504Z 19002KT M00/M03 A3035 RMK A01 T10021031  RH  081%=      5-min Rain = 0
KJU1 200505Z 18002KT 00/03 A3035 RMK A01 T00-00-29  RH  081%=      5-min Rain = 0
KJU1 200506Z 18002KT M00/M03 A3035 RMK A01 T10011032  RH  080%=      5-min Rain = 0
KJU1 200507Z 18002KT M00/M03 A3035 RMK A01 T10021034  RH  079%=      5-min Rain = 0
KJU1 200508Z 18001KT M01/M04 A3035 RMK A01 T10061040  RH  078%=      5-min Rain = 0
KJU1 200509Z 18001KT M01/M04 A3035 RMK A01 T10081042  RH  078%=      5-min Rain = 0
KJU1 200510Z 18001KT M01/M04 A3035 RMK A01 T10091040  RH  079%=      5-min Rain = 0
KJU1 200511Z 21001KT M01/M04 A3034 RMK A01 T10071035  RH  081%=      5-min Rain = 0
KJU1 200512Z 21001KT M00/M03 A3034 RMK A01 T10031028  RH  083%=      5-min Rain = 0
KJU1 200513Z 22001KT 00/03 A3035 RMK A01 T00-00-26  RH  083%=      5-min Rain = 0
KJU1 200514Z 25001KT 00/03 A3035 RMK A01 T00-00-29  RH  081%=      5-min Rain = 0
KJU1 200515Z 26001KT M00/M03 A3035 RMK A01 T10021032  RH  080%=      5-min Rain = 0
KJU1 200516Z 26002KT M00/M03 A3035 RMK A01 T10031033  RH  081%=      5-min Rain = 0
KJU1 200517Z 26002KT M00/M03 A3035 RMK A01 T10031031  RH  081%=      5-min Rain = 0
KJU1 200518Z 26001KT M01/M04 A3035 RMK A01 T10061035  RH  080%=      5-min Rain = 0
KJU1 200519Z 27000KT M01/M04 A3035 RMK A01 T10091040  RH  080%=      5-min Rain = 0
KJU1 200520Z 26001KT M01/M04 A3035 RMK A01 T10111039  RH  081%=      5-min Rain = 0
KJU1 200521Z 26000KT M01/M04 A3035 RMK A01 T10101036  RH  083%=      5-min Rain = 0
KJU1 200522Z 00000KT M01/M04 A3035 RMK A01 T10101036  RH  083%=      5-min Rain = 0
KJU1 200523Z 00000KT M01/M03 A3035 RMK A01 T10091033  RH  084%=      5-min Rain = 0
KJU1 200524Z 00000KT M01/M03 A3035 RMK A01 T10071031  RH  084%=      5-min Rain = 0
KJU1 200525Z 00000KT M01/M03 A3035 RMK A01 T10061031  RH  083%=      5-min Rain = 0
KJU1 200526Z 23000KT M01/M03 A3035 RMK A01 T10061033  RH  082%=      5-min Rain = 0
KJU1 200527Z 22000KT M01/M04 A3035 RMK A01 T10081036  RH  081%=      5-min Rain = 0
KJU1 200528Z 22001KT M01/M04 A3035 RMK A01 T10121042  RH  080%=      5-min Rain = 0
KJU1 200529Z 23001KT M02/M04 A3035 RMK A01 T10151044  RH  081%=      5-min Rain = 0
KJU1 200530Z 24002KT M02/M04 A3035 RMK A01 T10161042  RH  083%=      5-min Rain = 0
KJU1 200531Z 24002KT M01/M04 A3036 RMK A01 T10141036  RH  085%=      5-min Rain = 0
KJU1 200532Z 23002KT M01/M03 A3036 RMK A01 T10121034  RH  085%=      5-min Rain = 0
KJU1 200533Z 24002KT M01/M03 A3036 RMK A01 T10111031  RH  086%=      5-min Rain = 0
KJU1 200534Z 24001KT M01/M03 A3036 RMK A01 T10101029  RH  087%=      5-min Rain = 0
KJU1 200535Z 22001KT M01/M03 A3036 RMK A01 T10121033  RH  085%=      5-min Rain = 0
KJU1 200536Z 18001KT M01/M04 A3036 RMK A01 T10141037  RH  085%=      5-min Rain = 0
KJU1 200537Z 13001KT M01/M03 A3036 RMK A01 T10131033  RH  086%=      5-min Rain = 0
KJU1 200538Z 14001KT M01/M03 A3036 RMK A01 T10101030  RH  086%=      5-min Rain = 0
KJU1 200539Z 17002KT M01/M02 A3036 RMK A01 T10051024  RH  087%=      5-min Rain = 0
KJU1 200540Z 15002KT M00/M03 A3036 RMK A01 T10031026  RH  085%=      5-min Rain = 0
KJU1 200541Z 15003KT M01/M04 A3036 RMK A01 T10071036  RH  081%=      5-min Rain = 0
KJU1 200542Z 16003KT M01/M04 A3036 RMK A01 T10111040  RH  081%=      5-min Rain = 0
KJU1 200543Z 16003KT M01/M03 A3036 RMK A01 T10081033  RH  084%=      5-min Rain = 0
KJU1 200544Z 17003KT M00/M03 A3036 RMK A01 T10041027  RH  085%=      5-min Rain = 0
KJU1 200545Z 17003KT M00/M03 A3036 RMK A01 T10021027  RH  084%=      5-min Rain = 0
KJU1 200546Z 18003KT M00/M03 A3036 RMK A01 T10041032  RH  081%=      5-min Rain = 0
KJU1 200547Z 18003KT M01/M04 A3036 RMK A01 T10081037  RH  081%=      5-min Rain = 0
KJU1 200548Z 18004KT M01/M04 A3036 RMK A01 T10091036  RH  082%=      5-min Rain = 0
KJU1 200549Z 19004KT M01/M04 A3036 RMK A01 T10091035  RH  082%=      5-min Rain = 0
KJU1 200550Z 19004KT M01/M04 A3036 RMK A01 T10091035  RH  083%=      5-min Rain = 0
KJU1 200551Z 20005KT M01/M03 A3036 RMK A01 T10091034  RH  083%=      5-min Rain = 0
KJU1 200552Z 20004KT M01/M03 A3036 RMK A01 T10091033  RH  084%=      5-min Rain = 0
KJU1 200553Z 20004KT M01/M03 A3036 RMK A01 T10061029  RH  085%=      5-min Rain = 0
KJU1 200554Z 21003KT M01/M03 A3036 RMK A01 T10071031  RH  084%=      5-min Rain = 0
KJU1 200555Z 22002KT M01/M04 A3036 RMK A01 T10101037  RH  082%=      5-min Rain = 0
KJU1 200556Z 21002KT M01/M04 A3036 RMK A01 T10121038  RH  082%=      5-min Rain = 0
KJU1 200557Z 18002KT M01/M04 A3036 RMK A01 T10111035  RH  084%=      5-min Rain = 0
KJU1 200558Z 17002KT M01/M03 A3036 RMK A01 T10101032  RH  085%=      5-min Rain = 0
KJU1 200559Z 15002KT M01/M03 A3037 RMK A01 T10101032  RH  085%=      5-min Rain = 0

Page generated in 0.1575 seconds.